N7505 KTEB-KORL
Flight info
| Callsign | N7505 |
|---|---|
| Flight time | 4h 3m |
| Altitude | 29000 |
| Route | ELVAE COL/N0318F300 WHITE Q409 CRPLR Q85 LPERD TTHOR3 |
| Aircraft | TBM9/L-SDFGRWY/S |
Departure
| Time | 2026-05-07 13:16 |
|---|---|
| Airport | Teterboro Airport (KTEB) |
Arrival
| Time | 2026-05-07 17:19 |
|---|---|
| Airport | Orlando Executive Airport (KORL) |
| Time | Latitude | Longitude | Altitude | Speed | Heading |
|---|---|---|---|---|---|
| 2026-05-07 12:31 | 40.84698 | -74.06640 | 13 ft | 0 kts | 49° |
| 2026-05-07 13:11 | 40.84717 | -74.06629 | 10 ft | 11 kts | 340° |
| 2026-05-07 13:11 | 40.84786 | -74.06652 | 18 ft | 12 kts | 31° |
| 2026-05-07 13:11 | 40.84856 | -74.06552 | 21 ft | 17 kts | 47° |
| 2026-05-07 13:12 | 40.84853 | -74.06438 | 20 ft | 18 kts | 130° |
| 2026-05-07 13:12 | 40.84757 | -74.06267 | 16 ft | 26 kts | 124° |
| 2026-05-07 13:12 | 40.84679 | -74.06133 | 10 ft | 13 kts | 147° |
| 2026-05-07 13:12 | 40.84572 | -74.06131 | 9 ft | 20 kts | 183° |
| 2026-05-07 13:13 | 40.84398 | -74.06144 | 9 ft | 30 kts | 183° |
| 2026-05-07 13:13 | 40.84162 | -74.06160 | 10 ft | 38 kts | 182° |
| 2026-05-07 13:13 | 40.83914 | -74.06178 | 12 ft | 13 kts | 173° |
| 2026-05-07 13:13 | 40.83882 | -74.06143 | 11 ft | 5 kts | 105° |
| 2026-05-07 13:14 | 40.83880 | -74.06074 | 9 ft | 9 kts | 90° |
| 2026-05-07 13:14 | 40.83896 | -74.06037 | 8 ft | 2 kts | 6° |
| 2026-05-07 13:14 | 40.83897 | -74.06037 | 8 ft | 0 kts | 4° |
| 2026-05-07 13:15 | 40.83922 | -74.06034 | 8 ft | 21 kts | 3° |
| 2026-05-07 13:15 | 40.84265 | -74.06014 | 10 ft | 76 kts | 2° |
| 2026-05-07 13:15 | 40.84935 | -74.05933 | 76 ft | 113 kts | 7° |
| 2026-05-07 13:15 | 40.85801 | -74.05848 | 269 ft | 132 kts | 8° |
| 2026-05-07 13:16 | 40.86761 | -74.05710 | 491 ft | 144 kts | 8° |
| 2026-05-07 13:16 | 40.87664 | -74.05469 | 1281 ft | 111 kts | 5° |
| 2026-05-07 13:16 | 40.88405 | -74.05315 | 1734 ft | 112 kts | 14° |
| 2026-05-07 13:16 | 40.89118 | -74.04974 | 2047 ft | 113 kts | 19° |
| 2026-05-07 13:17 | 40.89933 | -74.04884 | 2074 ft | 125 kts | 354° |
| 2026-05-07 13:17 | 40.90786 | -74.04966 | 2137 ft | 125 kts | 25° |
| 2026-05-07 13:17 | 40.91022 | -74.03821 | 1678 ft | 153 kts | 107° |
| 2026-05-07 13:17 | 40.90638 | -74.02630 | 1632 ft | 131 kts | 131° |
| 2026-05-07 13:18 | 40.89859 | -74.02229 | 1421 ft | 122 kts | 187° |
| 2026-05-07 13:18 | 40.89037 | -74.02157 | 1291 ft | 115 kts | 182° |
| 2026-05-07 13:18 | 40.88251 | -74.01822 | 1312 ft | 125 kts | 149° |
| 2026-05-07 13:18 | 40.87486 | -74.01204 | 1339 ft | 132 kts | 154° |
| 2026-05-07 13:19 | 40.86670 | -74.00573 | 1344 ft | 141 kts | 152° |
| 2026-05-07 13:19 | 40.85818 | -73.99873 | 1316 ft | 148 kts | 139° |
| 2026-05-07 13:19 | 40.85421 | -73.98701 | 1307 ft | 142 kts | 91° |
| 2026-05-07 13:19 | 40.85078 | -73.97516 | 1376 ft | 146 kts | 142° |
| 2026-05-07 13:20 | 40.84135 | -73.97270 | 1376 ft | 141 kts | 210° |
| 2026-05-07 13:20 | 40.83322 | -73.97978 | 1340 ft | 142 kts | 233° |
| 2026-05-07 13:20 | 40.82785 | -73.99006 | 1321 ft | 139 kts | 245° |
| 2026-05-07 13:20 | 40.82061 | -73.99912 | 1318 ft | 147 kts | 230° |
| 2026-05-07 13:21 | 40.81254 | -74.00758 | 1320 ft | 150 kts | 228° |
| 2026-05-07 13:21 | 40.80422 | -74.01618 | 1325 ft | 154 kts | 227° |
| 2026-05-07 13:21 | 40.79565 | -74.02502 | 1319 ft | 158 kts | 232° |
| 2026-05-07 13:21 | 40.78757 | -74.03465 | 1299 ft | 157 kts | 237° |
| 2026-05-07 13:22 | 40.77931 | -74.04397 | 1314 ft | 154 kts | 232° |
| 2026-05-07 13:22 | 40.77101 | -74.05264 | 1290 ft | 150 kts | 232° |
| 2026-05-07 13:22 | 40.76284 | -74.06090 | 1294 ft | 147 kts | 231° |
| 2026-05-07 13:22 | 40.75472 | -74.06914 | 1242 ft | 146 kts | 232° |
| 2026-05-07 13:23 | 40.74664 | -74.07725 | 1306 ft | 138 kts | 230° |
| 2026-05-07 13:23 | 40.73914 | -74.08444 | 1673 ft | 132 kts | 232° |
| 2026-05-07 13:23 | 40.73171 | -74.09178 | 2031 ft | 134 kts | 231° |
| 2026-05-07 13:23 | 40.72423 | -74.09907 | 2391 ft | 133 kts | 232° |
| 2026-05-07 13:24 | 40.71665 | -74.10664 | 2655 ft | 140 kts | 233° |
| 2026-05-07 13:24 | 40.70878 | -74.11457 | 2946 ft | 145 kts | 235° |
| 2026-05-07 13:24 | 40.70066 | -74.12292 | 3225 ft | 150 kts | 236° |
| 2026-05-07 13:24 | 40.69245 | -74.13152 | 3500 ft | 151 kts | 232° |
| 2026-05-07 13:25 | 40.68345 | -74.13962 | 3811 ft | 161 kts | 224° |
| 2026-05-07 13:25 | 40.67411 | -74.14786 | 4159 ft | 162 kts | 229° |
| 2026-05-07 13:25 | 40.66518 | -74.15710 | 4495 ft | 165 kts | 231° |
| 2026-05-07 13:25 | 40.65613 | -74.16665 | 4825 ft | 169 kts | 230° |
| 2026-05-07 13:26 | 40.64693 | -74.17606 | 5262 ft | 165 kts | 230° |
| 2026-05-07 13:26 | 40.63799 | -74.18507 | 5762 ft | 159 kts | 231° |
| 2026-05-07 13:26 | 40.62936 | -74.19376 | 6256 ft | 153 kts | 231° |
| 2026-05-07 13:26 | 40.62103 | -74.20215 | 6722 ft | 148 kts | 232° |
| 2026-05-07 13:27 | 40.61300 | -74.21020 | 7182 ft | 143 kts | 232° |
| 2026-05-07 13:27 | 40.60525 | -74.21798 | 7650 ft | 137 kts | 232° |
| 2026-05-07 13:27 | 40.59766 | -74.22569 | 8025 ft | 139 kts | 233° |
| 2026-05-07 13:27 | 40.58994 | -74.23357 | 8375 ft | 142 kts | 232° |
| 2026-05-07 13:28 | 40.58207 | -74.24160 | 8750 ft | 144 kts | 232° |
| 2026-05-07 13:28 | 40.57408 | -74.24969 | 9113 ft | 145 kts | 232° |
| 2026-05-07 13:28 | 40.56595 | -74.25764 | 9463 ft | 148 kts | 228° |
| 2026-05-07 13:28 | 40.55651 | -74.26390 | 9797 ft | 156 kts | 219° |
| 2026-05-07 13:29 | 40.54569 | -74.26773 | 10091 ft | 166 kts | 208° |
| 2026-05-07 13:29 | 40.53376 | -74.26843 | 10375 ft | 178 kts | 197° |
| 2026-05-07 13:29 | 40.52134 | -74.26537 | 10652 ft | 192 kts | 183° |
| 2026-05-07 13:29 | 40.50851 | -74.25883 | 10969 ft | 195 kts | 180° |
| 2026-05-07 13:30 | 40.49616 | -74.25245 | 11310 ft | 192 kts | 181° |
| 2026-05-07 13:30 | 40.48373 | -74.24624 | 11648 ft | 190 kts | 181° |
| 2026-05-07 13:30 | 40.47144 | -74.24011 | 11970 ft | 188 kts | 182° |
| 2026-05-07 13:30 | 40.45924 | -74.23404 | 12316 ft | 187 kts | 182° |
| 2026-05-07 13:31 | 40.44712 | -74.22797 | 12667 ft | 186 kts | 182° |
| 2026-05-07 13:31 | 40.43510 | -74.22196 | 13025 ft | 185 kts | 183° |
| 2026-05-07 13:31 | 40.42310 | -74.21600 | 13388 ft | 184 kts | 184° |
| 2026-05-07 13:31 | 40.41115 | -74.21007 | 13752 ft | 183 kts | 184° |
| 2026-05-07 13:32 | 40.39927 | -74.20414 | 14077 ft | 182 kts | 184° |
| 2026-05-07 13:32 | 40.38744 | -74.19827 | 14411 ft | 181 kts | 185° |
| 2026-05-07 13:32 | 40.37572 | -74.19241 | 14744 ft | 179 kts | 185° |
| 2026-05-07 13:32 | 40.36409 | -74.18663 | 15079 ft | 178 kts | 186° |
| 2026-05-07 13:33 | 40.35255 | -74.18090 | 15417 ft | 177 kts | 187° |
| 2026-05-07 13:33 | 40.34106 | -74.17519 | 15765 ft | 176 kts | 187° |
| 2026-05-07 13:33 | 40.32965 | -74.16952 | 16114 ft | 175 kts | 188° |
| 2026-05-07 13:33 | 40.31851 | -74.16539 | 16512 ft | 157 kts | 199° |
| 2026-05-07 13:34 | 40.30812 | -74.16406 | 16903 ft | 144 kts | 208° |
| 2026-05-07 13:34 | 40.28989 | -74.16707 | 17684 ft | 124 kts | 221° |
| 2026-05-07 13:34 | 40.28143 | -74.16960 | 18057 ft | 125 kts | 221° |
| 2026-05-07 13:35 | 40.27302 | -74.17210 | 18411 ft | 123 kts | 221° |
| 2026-05-07 13:35 | 40.26479 | -74.17457 | 18731 ft | 123 kts | 221° |
| 2026-05-07 13:35 | 40.25643 | -74.17707 | 19069 ft | 121 kts | 222° |
| 2026-05-07 13:35 | 40.24829 | -74.17951 | 19368 ft | 119 kts | 222° |
| 2026-05-07 13:36 | 40.24023 | -74.18196 | 19707 ft | 118 kts | 222° |
| 2026-05-07 13:36 | 40.23227 | -74.18434 | 20046 ft | 116 kts | 223° |
| 2026-05-07 13:36 | 40.22437 | -74.18680 | 20281 ft | 121 kts | 223° |
| 2026-05-07 13:36 | 40.21600 | -74.18939 | 20508 ft | 126 kts | 222° |
| 2026-05-07 13:37 | 40.20730 | -74.19205 | 20734 ft | 130 kts | 221° |
| 2026-05-07 13:37 | 40.19834 | -74.19478 | 20966 ft | 134 kts | 221° |
| 2026-05-07 13:37 | 40.18912 | -74.19757 | 21194 ft | 137 kts | 221° |
| 2026-05-07 13:37 | 40.17973 | -74.20039 | 21428 ft | 140 kts | 221° |
| 2026-05-07 13:38 | 40.17019 | -74.20327 | 21659 ft | 142 kts | 221° |
| 2026-05-07 13:38 | 40.16053 | -74.20617 | 21892 ft | 143 kts | 220° |
| 2026-05-07 13:38 | 40.15076 | -74.20911 | 22124 ft | 145 kts | 221° |
| 2026-05-07 13:38 | 40.14092 | -74.21207 | 22358 ft | 146 kts | 220° |
| 2026-05-07 13:39 | 40.13100 | -74.21504 | 22594 ft | 146 kts | 220° |
| 2026-05-07 13:39 | 40.12105 | -74.21802 | 22830 ft | 147 kts | 220° |
| 2026-05-07 13:39 | 40.11107 | -74.22102 | 23066 ft | 147 kts | 221° |
| 2026-05-07 13:39 | 40.10104 | -74.22402 | 23304 ft | 148 kts | 221° |
| 2026-05-07 13:40 | 40.09101 | -74.22703 | 23538 ft | 148 kts | 221° |
| 2026-05-07 13:40 | 40.08092 | -74.23004 | 23738 ft | 149 kts | 221° |
| 2026-05-07 13:40 | 40.07085 | -74.23305 | 23930 ft | 148 kts | 221° |
| 2026-05-07 13:40 | 40.06082 | -74.23606 | 24128 ft | 149 kts | 221° |
| 2026-05-07 13:41 | 40.05070 | -74.23909 | 24329 ft | 149 kts | 221° |
| 2026-05-07 13:41 | 40.04059 | -74.24212 | 24482 ft | 149 kts | 221° |
| 2026-05-07 13:41 | 40.03060 | -74.24510 | 24681 ft | 149 kts | 221° |
| 2026-05-07 13:41 | 40.02048 | -74.24812 | 24882 ft | 149 kts | 221° |
| 2026-05-07 13:42 | 40.01041 | -74.25112 | 25090 ft | 148 kts | 222° |
| 2026-05-07 13:42 | 40.00082 | -74.25474 | 25361 ft | 129 kts | 233° |
| 2026-05-07 13:42 | 39.99413 | -74.26142 | 25608 ft | 121 kts | 238° |
| 2026-05-07 13:42 | 39.98725 | -74.26796 | 25808 ft | 124 kts | 236° |
| 2026-05-07 13:43 | 39.98007 | -74.27426 | 26019 ft | 125 kts | 236° |
| 2026-05-07 13:43 | 39.97279 | -74.28043 | 26233 ft | 125 kts | 235° |
| 2026-05-07 13:43 | 39.96547 | -74.28655 | 26450 ft | 125 kts | 236° |
| 2026-05-07 13:43 | 39.95816 | -74.29262 | 26667 ft | 124 kts | 236° |
| 2026-05-07 13:44 | 39.95087 | -74.29867 | 26884 ft | 124 kts | 236° |
| 2026-05-07 13:44 | 39.94361 | -74.30468 | 27111 ft | 123 kts | 236° |
| 2026-05-07 13:44 | 39.93648 | -74.31058 | 27327 ft | 123 kts | 236° |
| 2026-05-07 13:44 | 39.92919 | -74.31662 | 27558 ft | 122 kts | 236° |
| 2026-05-07 13:45 | 39.92205 | -74.32253 | 27784 ft | 121 kts | 236° |
| 2026-05-07 13:45 | 39.91492 | -74.32842 | 28014 ft | 120 kts | 237° |
| 2026-05-07 13:45 | 39.90798 | -74.33416 | 28241 ft | 119 kts | 237° |
| 2026-05-07 13:45 | 39.90100 | -74.33992 | 28476 ft | 118 kts | 237° |
| 2026-05-07 13:46 | 39.89410 | -74.34562 | 28708 ft | 117 kts | 237° |
| 2026-05-07 13:46 | 39.88727 | -74.35126 | 28932 ft | 116 kts | 237° |
| 2026-05-07 13:46 | 39.88028 | -74.35718 | 28950 ft | 124 kts | 237° |
| 2026-05-07 13:46 | 39.87275 | -74.36355 | 28951 ft | 133 kts | 236° |
| 2026-05-07 13:47 | 39.86475 | -74.37022 | 28948 ft | 139 kts | 234° |
| 2026-05-07 13:47 | 39.85536 | -74.37566 | 28955 ft | 155 kts | 218° |
| 2026-05-07 13:47 | 39.84563 | -74.38129 | 28891 ft | 149 kts | 223° |
| 2026-05-07 13:47 | 39.83720 | -74.38859 | 28907 ft | 144 kts | 226° |
| 2026-05-07 13:48 | 39.82870 | -74.39582 | 28941 ft | 148 kts | 225° |
| 2026-05-07 13:48 | 39.82001 | -74.40313 | 28941 ft | 150 kts | 225° |
| 2026-05-07 13:48 | 39.81123 | -74.41055 | 28940 ft | 151 kts | 225° |
| 2026-05-07 13:48 | 39.80236 | -74.41804 | 28939 ft | 153 kts | 225° |
| 2026-05-07 13:49 | 39.79343 | -74.42561 | 28942 ft | 154 kts | 225° |
| 2026-05-07 13:49 | 39.78442 | -74.43319 | 28940 ft | 155 kts | 225° |
| 2026-05-07 13:49 | 39.77842 | -74.43823 | 28940 ft | 155 kts | 225° |
| 2026-05-07 13:49 | 39.76624 | -74.44847 | 28939 ft | 156 kts | 225° |
| 2026-05-07 13:50 | 39.75710 | -74.45616 | 28937 ft | 157 kts | 225° |
| 2026-05-07 13:50 | 39.75102 | -74.46123 | 28937 ft | 157 kts | 224° |
| 2026-05-07 13:50 | 39.73850 | -74.47155 | 28937 ft | 162 kts | 224° |
| 2026-05-07 13:50 | 39.73212 | -74.47677 | 28936 ft | 165 kts | 224° |
| 2026-05-07 13:51 | 39.72227 | -74.48482 | 28939 ft | 169 kts | 223° |
| 2026-05-07 13:51 | 39.71221 | -74.49307 | 28935 ft | 172 kts | 223° |
| 2026-05-07 13:51 | 39.70202 | -74.50141 | 28930 ft | 175 kts | 223° |
| 2026-05-07 13:51 | 39.69168 | -74.50987 | 28930 ft | 176 kts | 223° |
| 2026-05-07 13:52 | 39.68128 | -74.51838 | 28928 ft | 177 kts | 223° |
| 2026-05-07 13:52 | 39.67080 | -74.52693 | 28930 ft | 178 kts | 223° |
| 2026-05-07 13:52 | 39.66026 | -74.53552 | 28930 ft | 179 kts | 223° |
| 2026-05-07 13:52 | 39.64967 | -74.54414 | 28930 ft | 180 kts | 223° |
| 2026-05-07 13:53 | 39.63903 | -74.55279 | 28933 ft | 180 kts | 223° |
| 2026-05-07 13:53 | 39.62838 | -74.56142 | 28930 ft | 181 kts | 221° |
| 2026-05-07 13:53 | 39.61735 | -74.56945 | 28909 ft | 182 kts | 216° |
| 2026-05-07 13:53 | 39.60616 | -74.57672 | 28807 ft | 177 kts | 220° |
| 2026-05-07 13:54 | 39.59651 | -74.58590 | 28802 ft | 170 kts | 227° |
| 2026-05-07 13:54 | 39.58696 | -74.59512 | 28906 ft | 172 kts | 224° |
| 2026-05-07 13:54 | 39.57699 | -74.60351 | 28936 ft | 174 kts | 223° |
| 2026-05-07 13:54 | 39.56671 | -74.61198 | 28936 ft | 176 kts | 223° |
| 2026-05-07 13:55 | 39.55628 | -74.62050 | 28936 ft | 178 kts | 223° |
| 2026-05-07 13:55 | 39.54578 | -74.62905 | 28936 ft | 179 kts | 223° |
| 2026-05-07 13:55 | 39.53519 | -74.63763 | 28936 ft | 180 kts | 223° |
| 2026-05-07 13:55 | 39.52457 | -74.64624 | 28936 ft | 181 kts | 223° |
| 2026-05-07 13:56 | 39.51389 | -74.65488 | 28936 ft | 181 kts | 223° |
| 2026-05-07 13:56 | 39.50321 | -74.66353 | 28935 ft | 181 kts | 223° |
| 2026-05-07 13:56 | 39.49249 | -74.67218 | 28935 ft | 182 kts | 223° |
| 2026-05-07 13:56 | 39.48176 | -74.68085 | 28936 ft | 182 kts | 223° |
| 2026-05-07 13:57 | 39.47100 | -74.68952 | 28935 ft | 182 kts | 222° |
| 2026-05-07 13:57 | 39.46023 | -74.69821 | 28934 ft | 182 kts | 222° |
| 2026-05-07 13:57 | 39.44950 | -74.70690 | 28927 ft | 182 kts | 221° |
| 2026-05-07 13:57 | 39.43876 | -74.71557 | 28933 ft | 182 kts | 221° |
| 2026-05-07 13:58 | 39.42800 | -74.72426 | 28931 ft | 183 kts | 221° |
| 2026-05-07 13:58 | 39.41722 | -74.73296 | 28932 ft | 183 kts | 221° |
| 2026-05-07 13:58 | 39.40640 | -74.74167 | 28931 ft | 183 kts | 221° |
| 2026-05-07 13:58 | 39.39558 | -74.75039 | 28930 ft | 183 kts | 221° |
| 2026-05-07 13:59 | 39.38474 | -74.75911 | 28930 ft | 183 kts | 221° |
| 2026-05-07 13:59 | 39.37400 | -74.76793 | 28915 ft | 182 kts | 222° |
| 2026-05-07 13:59 | 39.36324 | -74.77675 | 28920 ft | 184 kts | 221° |
| 2026-05-07 13:59 | 39.35241 | -74.78546 | 28919 ft | 184 kts | 221° |
| 2026-05-07 14:00 | 39.34155 | -74.79418 | 28922 ft | 184 kts | 221° |
| 2026-05-07 14:00 | 39.33081 | -74.80305 | 28930 ft | 183 kts | 221° |
| 2026-05-07 14:00 | 39.32000 | -74.81178 | 28927 ft | 183 kts | 221° |
| 2026-05-07 14:00 | 39.30917 | -74.82047 | 28927 ft | 183 kts | 221° |
| 2026-05-07 14:01 | 39.29862 | -74.82915 | 28929 ft | 182 kts | 222° |
| 2026-05-07 14:01 | 39.28786 | -74.83793 | 28933 ft | 183 kts | 221° |
| 2026-05-07 14:01 | 39.27705 | -74.84661 | 28936 ft | 182 kts | 221° |
| 2026-05-07 14:01 | 39.26647 | -74.85509 | 28935 ft | 182 kts | 221° |
| 2026-05-07 14:02 | 39.25560 | -74.86398 | 28866 ft | 181 kts | 221° |
| 2026-05-07 14:02 | 39.24501 | -74.87277 | 28932 ft | 181 kts | 220° |
| 2026-05-07 14:02 | 39.23432 | -74.88140 | 28940 ft | 182 kts | 220° |
| 2026-05-07 14:02 | 39.22355 | -74.89008 | 28942 ft | 183 kts | 220° |
| 2026-05-07 14:03 | 39.21274 | -74.89877 | 28945 ft | 184 kts | 220° |
| 2026-05-07 14:03 | 39.20188 | -74.90749 | 28946 ft | 184 kts | 219° |
| 2026-05-07 14:03 | 39.19098 | -74.91623 | 28946 ft | 185 kts | 219° |
| 2026-05-07 14:03 | 39.18007 | -74.92498 | 28947 ft | 185 kts | 219° |
| 2026-05-07 14:04 | 39.16913 | -74.93375 | 28948 ft | 185 kts | 219° |
| 2026-05-07 14:04 | 39.15833 | -74.94268 | 28952 ft | 185 kts | 220° |
| 2026-05-07 14:04 | 39.14743 | -74.95145 | 28950 ft | 185 kts | 219° |
| 2026-05-07 14:04 | 39.13647 | -74.96022 | 28950 ft | 186 kts | 219° |
| 2026-05-07 14:05 | 39.12549 | -74.96900 | 28951 ft | 186 kts | 219° |
| 2026-05-07 14:05 | 39.11451 | -74.97786 | 28942 ft | 186 kts | 220° |
| 2026-05-07 14:05 | 39.10357 | -74.98682 | 28954 ft | 187 kts | 219° |
| 2026-05-07 14:05 | 39.09252 | -74.99565 | 28952 ft | 187 kts | 219° |
| 2026-05-07 14:06 | 39.08144 | -75.00447 | 28933 ft | 187 kts | 219° |
| 2026-05-07 14:06 | 39.07039 | -75.01337 | 28929 ft | 187 kts | 220° |
| 2026-05-07 14:06 | 39.05941 | -75.02236 | 28936 ft | 188 kts | 219° |
| 2026-05-07 14:06 | 39.04832 | -75.03122 | 28927 ft | 187 kts | 219° |
| 2026-05-07 14:07 | 39.03721 | -75.04007 | 28932 ft | 188 kts | 219° |
| 2026-05-07 14:07 | 39.02605 | -75.04897 | 28919 ft | 189 kts | 219° |
| 2026-05-07 14:07 | 39.01500 | -75.05808 | 28940 ft | 189 kts | 219° |
| 2026-05-07 14:07 | 39.00375 | -75.06703 | 28924 ft | 191 kts | 219° |
| 2026-05-07 14:08 | 38.99245 | -75.07596 | 28910 ft | 191 kts | 219° |
| 2026-05-07 14:08 | 38.98130 | -75.08508 | 28911 ft | 189 kts | 220° |
| 2026-05-07 14:08 | 38.97009 | -75.09405 | 28912 ft | 190 kts | 219° |
| 2026-05-07 14:08 | 38.95883 | -75.10295 | 28911 ft | 190 kts | 219° |
| 2026-05-07 14:09 | 38.94764 | -75.11194 | 28908 ft | 189 kts | 220° |
| 2026-05-07 14:09 | 38.93667 | -75.12085 | 28921 ft | 190 kts | 219° |
| 2026-05-07 14:09 | 38.92543 | -75.12974 | 28920 ft | 190 kts | 219° |
| 2026-05-07 14:09 | 38.91420 | -75.13863 | 28915 ft | 189 kts | 220° |
| 2026-05-07 14:10 | 38.90316 | -75.14770 | 28927 ft | 189 kts | 219° |
| 2026-05-07 14:10 | 38.89195 | -75.15657 | 28930 ft | 189 kts | 219° |
| 2026-05-07 14:10 | 38.88076 | -75.16539 | 28931 ft | 189 kts | 219° |
| 2026-05-07 14:10 | 38.86973 | -75.17442 | 28937 ft | 188 kts | 220° |
| 2026-05-07 14:11 | 38.85860 | -75.18325 | 28933 ft | 188 kts | 219° |
| 2026-05-07 14:11 | 38.84750 | -75.19206 | 28895 ft | 187 kts | 219° |
| 2026-05-07 14:11 | 38.83642 | -75.20089 | 28936 ft | 188 kts | 219° |
| 2026-05-07 14:11 | 38.82530 | -75.20973 | 28937 ft | 189 kts | 219° |
| 2026-05-07 14:12 | 38.81408 | -75.21862 | 28939 ft | 190 kts | 219° |
| 2026-05-07 14:12 | 38.80297 | -75.22769 | 28945 ft | 191 kts | 219° |
| 2026-05-07 14:12 | 38.79162 | -75.23669 | 28942 ft | 192 kts | 219° |
| 2026-05-07 14:12 | 38.78027 | -75.24563 | 28943 ft | 193 kts | 219° |
| 2026-05-07 14:13 | 38.76889 | -75.25470 | 28931 ft | 193 kts | 220° |
| 2026-05-07 14:13 | 38.75748 | -75.26394 | 28947 ft | 194 kts | 219° |
| 2026-05-07 14:13 | 38.74602 | -75.27295 | 28945 ft | 195 kts | 218° |
| 2026-05-07 14:13 | 38.73440 | -75.28208 | 28943 ft | 195 kts | 219° |
| 2026-05-07 14:14 | 38.72299 | -75.29140 | 28951 ft | 195 kts | 219° |
| 2026-05-07 14:14 | 38.71143 | -75.30052 | 28944 ft | 195 kts | 218° |
| 2026-05-07 14:14 | 38.69997 | -75.30949 | 28945 ft | 196 kts | 218° |
| 2026-05-07 14:14 | 38.68851 | -75.31875 | 28945 ft | 195 kts | 219° |
| 2026-05-07 14:15 | 38.67698 | -75.32792 | 28945 ft | 195 kts | 218° |
| 2026-05-07 14:15 | 38.66540 | -75.33699 | 28931 ft | 195 kts | 218° |
| 2026-05-07 14:15 | 38.65384 | -75.34609 | 28916 ft | 194 kts | 219° |
| 2026-05-07 14:15 | 38.64248 | -75.35542 | 28937 ft | 195 kts | 218° |
| 2026-05-07 14:16 | 38.63092 | -75.36459 | 28937 ft | 196 kts | 218° |
| 2026-05-07 14:16 | 38.61925 | -75.37378 | 28937 ft | 198 kts | 218° |
| 2026-05-07 14:16 | 38.60752 | -75.38299 | 28937 ft | 198 kts | 218° |
| 2026-05-07 14:16 | 38.59572 | -75.39225 | 28937 ft | 199 kts | 218° |
| 2026-05-07 14:17 | 38.58390 | -75.40151 | 28936 ft | 200 kts | 218° |
| 2026-05-07 14:17 | 38.57215 | -75.41099 | 28939 ft | 200 kts | 218° |
| 2026-05-07 14:17 | 38.56033 | -75.42034 | 28937 ft | 200 kts | 218° |
| 2026-05-07 14:17 | 38.54839 | -75.42961 | 28943 ft | 201 kts | 218° |
| 2026-05-07 14:18 | 38.53667 | -75.43907 | 28935 ft | 198 kts | 220° |
| 2026-05-07 14:18 | 38.52502 | -75.44834 | 28937 ft | 197 kts | 219° |
| 2026-05-07 14:18 | 38.51330 | -75.45747 | 28935 ft | 197 kts | 219° |
| 2026-05-07 14:18 | 38.50163 | -75.46653 | 28935 ft | 196 kts | 219° |
| 2026-05-07 14:19 | 38.49014 | -75.47580 | 28938 ft | 195 kts | 219° |
| 2026-05-07 14:19 | 38.47857 | -75.48489 | 28935 ft | 196 kts | 219° |
| 2026-05-07 14:19 | 38.46692 | -75.49394 | 28934 ft | 196 kts | 219° |
| 2026-05-07 14:19 | 38.45541 | -75.50316 | 28933 ft | 195 kts | 220° |
| 2026-05-07 14:20 | 38.44385 | -75.51229 | 28883 ft | 196 kts | 218° |
| 2026-05-07 14:20 | 38.43221 | -75.52147 | 28930 ft | 197 kts | 218° |
| 2026-05-07 14:20 | 38.42061 | -75.53060 | 28936 ft | 200 kts | 218° |
| 2026-05-07 14:20 | 38.40871 | -75.53990 | 28936 ft | 202 kts | 218° |
| 2026-05-07 14:21 | 38.39666 | -75.54929 | 28936 ft | 203 kts | 217° |
| 2026-05-07 14:21 | 38.38462 | -75.55882 | 28929 ft | 204 kts | 218° |
| 2026-05-07 14:21 | 38.37253 | -75.56842 | 28937 ft | 205 kts | 217° |
| 2026-05-07 14:21 | 38.36030 | -75.57792 | 28935 ft | 206 kts | 217° |
| 2026-05-07 14:22 | 38.34800 | -75.58746 | 28929 ft | 207 kts | 218° |
| 2026-05-07 14:22 | 38.33586 | -75.59727 | 28940 ft | 207 kts | 217° |
| 2026-05-07 14:22 | 38.32352 | -75.60686 | 28935 ft | 208 kts | 217° |
| 2026-05-07 14:22 | 38.31114 | -75.61640 | 28934 ft | 208 kts | 217° |
| 2026-05-07 14:23 | 38.29895 | -75.62622 | 28939 ft | 207 kts | 218° |
| 2026-05-07 14:23 | 38.28660 | -75.63584 | 28934 ft | 208 kts | 217° |
| 2026-05-07 14:23 | 38.27428 | -75.64533 | 28933 ft | 208 kts | 217° |
| 2026-05-07 14:23 | 38.26209 | -75.65505 | 28933 ft | 208 kts | 218° |
| 2026-05-07 14:24 | 38.24966 | -75.66480 | 28933 ft | 208 kts | 217° |
| 2026-05-07 14:24 | 38.23722 | -75.67439 | 28895 ft | 209 kts | 217° |
| 2026-05-07 14:24 | 38.22506 | -75.68386 | 28921 ft | 208 kts | 218° |
| 2026-05-07 14:24 | 38.21269 | -75.69373 | 28932 ft | 210 kts | 217° |
| 2026-05-07 14:25 | 38.20002 | -75.70355 | 28928 ft | 211 kts | 217° |
| 2026-05-07 14:25 | 38.18760 | -75.71313 | 28926 ft | 212 kts | 217° |
| 2026-05-07 14:25 | 38.17515 | -75.72307 | 28933 ft | 211 kts | 217° |
| 2026-05-07 14:25 | 38.16259 | -75.73286 | 28926 ft | 212 kts | 217° |
| 2026-05-07 14:26 | 38.14995 | -75.74260 | 28924 ft | 212 kts | 216° |
| 2026-05-07 14:26 | 38.13731 | -75.75235 | 28913 ft | 212 kts | 217° |
| 2026-05-07 14:26 | 38.12485 | -75.76235 | 28929 ft | 212 kts | 217° |
| 2026-05-07 14:26 | 38.11224 | -75.77210 | 28919 ft | 212 kts | 216° |
| 2026-05-07 14:27 | 38.09960 | -75.78181 | 28919 ft | 212 kts | 216° |
| 2026-05-07 14:27 | 38.08706 | -75.79162 | 28910 ft | 211 kts | 218° |
| 2026-05-07 14:27 | 38.07463 | -75.80140 | 28919 ft | 210 kts | 217° |
| 2026-05-07 14:27 | 38.06216 | -75.81095 | 28908 ft | 209 kts | 217° |
| 2026-05-07 14:28 | 38.04986 | -75.82066 | 28909 ft | 207 kts | 218° |
| 2026-05-07 14:28 | 38.03761 | -75.83023 | 28912 ft | 207 kts | 217° |
| 2026-05-07 14:28 | 38.02548 | -75.83957 | 28879 ft | 207 kts | 216° |
| 2026-05-07 14:28 | 38.01307 | -75.84925 | 28910 ft | 207 kts | 216° |
| 2026-05-07 14:29 | 38.00088 | -75.85872 | 28909 ft | 209 kts | 216° |
| 2026-05-07 14:29 | 37.98844 | -75.86834 | 28910 ft | 210 kts | 216° |
| 2026-05-07 14:29 | 37.97593 | -75.87799 | 28910 ft | 211 kts | 216° |
| 2026-05-07 14:29 | 37.96334 | -75.88769 | 28913 ft | 212 kts | 216° |
| 2026-05-07 14:30 | 37.95084 | -75.89755 | 28917 ft | 211 kts | 217° |
| 2026-05-07 14:30 | 37.93826 | -75.90735 | 28918 ft | 212 kts | 216° |
| 2026-05-07 14:30 | 37.92564 | -75.91705 | 28917 ft | 212 kts | 216° |
| 2026-05-07 14:30 | 37.91301 | -75.92675 | 28918 ft | 212 kts | 216° |
| 2026-05-07 14:31 | 37.90038 | -75.93644 | 28916 ft | 212 kts | 216° |
| 2026-05-07 14:31 | 37.88787 | -75.94635 | 28949 ft | 212 kts | 216° |
| 2026-05-07 14:31 | 37.87531 | -75.95606 | 28946 ft | 212 kts | 216° |
| 2026-05-07 14:31 | 37.86268 | -75.96575 | 28945 ft | 212 kts | 216° |
| 2026-05-07 14:32 | 37.85012 | -75.97539 | 28944 ft | 212 kts | 216° |
| 2026-05-07 14:32 | 37.83749 | -75.98507 | 28945 ft | 211 kts | 216° |
| 2026-05-07 14:32 | 37.82521 | -75.99478 | 28949 ft | 211 kts | 216° |
| 2026-05-07 14:32 | 37.81269 | -76.00447 | 28923 ft | 211 kts | 216° |
| 2026-05-07 14:33 | 37.80017 | -76.01423 | 28946 ft | 212 kts | 216° |
| 2026-05-07 14:33 | 37.78751 | -76.02406 | 28947 ft | 214 kts | 216° |
| 2026-05-07 14:33 | 37.77482 | -76.03387 | 28947 ft | 216 kts | 216° |
| 2026-05-07 14:33 | 37.76195 | -76.04379 | 28947 ft | 217 kts | 216° |
| 2026-05-07 14:34 | 37.74912 | -76.05366 | 28946 ft | 217 kts | 216° |
| 2026-05-07 14:34 | 37.73615 | -76.06364 | 28945 ft | 218 kts | 216° |
| 2026-05-07 14:34 | 37.72313 | -76.07365 | 28944 ft | 218 kts | 216° |
| 2026-05-07 14:34 | 37.71018 | -76.08360 | 28942 ft | 218 kts | 216° |
| 2026-05-07 14:35 | 37.69718 | -76.09358 | 28940 ft | 218 kts | 216° |
| 2026-05-07 14:35 | 37.68421 | -76.10354 | 28938 ft | 218 kts | 216° |
| 2026-05-07 14:35 | 37.67124 | -76.11349 | 28936 ft | 218 kts | 216° |
| 2026-05-07 14:35 | 37.65825 | -76.12344 | 28935 ft | 218 kts | 216° |
| 2026-05-07 14:36 | 37.64529 | -76.13339 | 28934 ft | 218 kts | 216° |
| 2026-05-07 14:36 | 37.63233 | -76.14332 | 28932 ft | 218 kts | 216° |
| 2026-05-07 14:36 | 37.61940 | -76.15320 | 28932 ft | 217 kts | 216° |
| 2026-05-07 14:36 | 37.60651 | -76.16300 | 28929 ft | 215 kts | 216° |
| 2026-05-07 14:37 | 37.59391 | -76.17303 | 28911 ft | 213 kts | 219° |
| 2026-05-07 14:37 | 37.56925 | -76.19340 | 28925 ft | 212 kts | 217° |
| 2026-05-07 14:37 | 37.55687 | -76.20339 | 28923 ft | 211 kts | 218° |
| 2026-05-07 14:38 | 37.54454 | -76.21333 | 28919 ft | 210 kts | 218° |
| 2026-05-07 14:38 | 37.53240 | -76.22312 | 28923 ft | 210 kts | 218° |
| 2026-05-07 14:38 | 37.52014 | -76.23301 | 28922 ft | 209 kts | 218° |
| 2026-05-07 14:38 | 37.50789 | -76.24289 | 28922 ft | 209 kts | 218° |
| 2026-05-07 14:39 | 37.49567 | -76.25275 | 28919 ft | 208 kts | 218° |
| 2026-05-07 14:39 | 37.48348 | -76.26258 | 28920 ft | 208 kts | 218° |
| 2026-05-07 14:39 | 37.47132 | -76.27239 | 28920 ft | 207 kts | 218° |
| 2026-05-07 14:39 | 37.45918 | -76.28218 | 28920 ft | 207 kts | 218° |
| 2026-05-07 14:40 | 37.44706 | -76.29194 | 28920 ft | 207 kts | 218° |
| 2026-05-07 14:40 | 37.43496 | -76.30170 | 28920 ft | 206 kts | 218° |
| 2026-05-07 14:40 | 37.42289 | -76.31143 | 28920 ft | 206 kts | 218° |
| 2026-05-07 14:40 | 37.41490 | -76.31787 | 28920 ft | 206 kts | 218° |
| 2026-05-07 14:41 | 37.39880 | -76.33085 | 28920 ft | 205 kts | 218° |
| 2026-05-07 14:41 | 37.39084 | -76.33727 | 28897 ft | 205 kts | 219° |
| 2026-05-07 14:41 | 37.37888 | -76.34699 | 28922 ft | 205 kts | 219° |
| 2026-05-07 14:41 | 37.36686 | -76.35678 | 28924 ft | 207 kts | 219° |
| 2026-05-07 14:42 | 37.35476 | -76.36661 | 28920 ft | 208 kts | 219° |
| 2026-05-07 14:42 | 37.34259 | -76.37647 | 28924 ft | 208 kts | 219° |
| 2026-05-07 14:42 | 37.33040 | -76.38633 | 28922 ft | 209 kts | 219° |
| 2026-05-07 14:42 | 37.31818 | -76.39622 | 28923 ft | 209 kts | 219° |
| 2026-05-07 14:43 | 37.30594 | -76.40610 | 28922 ft | 209 kts | 219° |
| 2026-05-07 14:43 | 37.29370 | -76.41599 | 28922 ft | 209 kts | 219° |
| 2026-05-07 14:43 | 37.28163 | -76.42573 | 28922 ft | 209 kts | 219° |
| 2026-05-07 14:43 | 37.26938 | -76.43559 | 28923 ft | 209 kts | 218° |
| 2026-05-07 14:44 | 37.25711 | -76.44539 | 28928 ft | 209 kts | 218° |
| 2026-05-07 14:44 | 37.24486 | -76.45518 | 28929 ft | 209 kts | 218° |
| 2026-05-07 14:44 | 37.23260 | -76.46497 | 28930 ft | 209 kts | 218° |
| 2026-05-07 14:44 | 37.22038 | -76.47474 | 28931 ft | 208 kts | 218° |
| 2026-05-07 14:45 | 37.20814 | -76.48451 | 28930 ft | 208 kts | 218° |
| 2026-05-07 14:45 | 37.19592 | -76.49426 | 28929 ft | 208 kts | 218° |
| 2026-05-07 14:45 | 37.18371 | -76.50399 | 28935 ft | 208 kts | 218° |
| 2026-05-07 14:45 | 37.17149 | -76.51366 | 28927 ft | 207 kts | 220° |
| 2026-05-07 14:46 | 37.15943 | -76.52330 | 28932 ft | 205 kts | 220° |
| 2026-05-07 14:46 | 37.14741 | -76.53291 | 28929 ft | 204 kts | 220° |
| 2026-05-07 14:46 | 37.13546 | -76.54242 | 28929 ft | 203 kts | 220° |
| 2026-05-07 14:46 | 37.12355 | -76.55192 | 28941 ft | 203 kts | 220° |
| 2026-05-07 14:47 | 37.11165 | -76.56139 | 28939 ft | 202 kts | 220° |
| 2026-05-07 14:47 | 37.09986 | -76.57076 | 28939 ft | 201 kts | 220° |
| 2026-05-07 14:47 | 37.08801 | -76.58019 | 28942 ft | 201 kts | 220° |
| 2026-05-07 14:47 | 37.07621 | -76.58958 | 28939 ft | 200 kts | 220° |
| 2026-05-07 14:48 | 37.06445 | -76.59893 | 28939 ft | 200 kts | 220° |
| 2026-05-07 14:48 | 37.05272 | -76.60824 | 28941 ft | 199 kts | 220° |
| 2026-05-07 14:48 | 37.04104 | -76.61752 | 28939 ft | 199 kts | 220° |
| 2026-05-07 14:48 | 37.02968 | -76.62654 | 28939 ft | 198 kts | 220° |
| 2026-05-07 14:49 | 37.01774 | -76.63602 | 28940 ft | 198 kts | 220° |
| 2026-05-07 14:49 | 37.00613 | -76.64523 | 28937 ft | 198 kts | 220° |
| 2026-05-07 14:49 | 36.99453 | -76.65443 | 28938 ft | 197 kts | 220° |
| 2026-05-07 14:49 | 36.98295 | -76.66360 | 28938 ft | 197 kts | 220° |
| 2026-05-07 14:50 | 36.97140 | -76.67276 | 28936 ft | 196 kts | 220° |
| 2026-05-07 14:50 | 36.96007 | -76.68173 | 28905 ft | 195 kts | 220° |
| 2026-05-07 14:50 | 36.94863 | -76.69078 | 28937 ft | 194 kts | 220° |
| 2026-05-07 14:50 | 36.93708 | -76.69993 | 28937 ft | 193 kts | 220° |
| 2026-05-07 14:51 | 36.92587 | -76.70880 | 28935 ft | 193 kts | 220° |
| 2026-05-07 14:51 | 36.91453 | -76.71777 | 28935 ft | 193 kts | 220° |
| 2026-05-07 14:51 | 36.90320 | -76.72673 | 28931 ft | 192 kts | 220° |
| 2026-05-07 14:51 | 36.89190 | -76.73566 | 28925 ft | 192 kts | 220° |
| 2026-05-07 14:52 | 36.88081 | -76.74443 | 28932 ft | 192 kts | 221° |
| 2026-05-07 14:52 | 36.86939 | -76.75344 | 28928 ft | 191 kts | 221° |
| 2026-05-07 14:52 | 36.85813 | -76.76233 | 28930 ft | 191 kts | 221° |
| 2026-05-07 14:52 | 36.84692 | -76.77118 | 28930 ft | 191 kts | 221° |
| 2026-05-07 14:53 | 36.83573 | -76.78001 | 28926 ft | 190 kts | 221° |
| 2026-05-07 14:53 | 36.82454 | -76.78883 | 28929 ft | 190 kts | 221° |
| 2026-05-07 14:53 | 36.81338 | -76.79763 | 28927 ft | 190 kts | 221° |
| 2026-05-07 14:53 | 36.80223 | -76.80642 | 28929 ft | 189 kts | 221° |
| 2026-05-07 14:54 | 36.79111 | -76.81518 | 28931 ft | 189 kts | 221° |
| 2026-05-07 14:54 | 36.78000 | -76.82393 | 28927 ft | 189 kts | 221° |
| 2026-05-07 14:54 | 36.76891 | -76.83266 | 28927 ft | 188 kts | 221° |
| 2026-05-07 14:54 | 36.75800 | -76.84126 | 28926 ft | 188 kts | 221° |
| 2026-05-07 14:55 | 36.74681 | -76.85007 | 28923 ft | 188 kts | 221° |
| 2026-05-07 14:55 | 36.73593 | -76.85864 | 28923 ft | 187 kts | 220° |
| 2026-05-07 14:55 | 36.72492 | -76.86734 | 28943 ft | 188 kts | 221° |
| 2026-05-07 14:55 | 36.71381 | -76.87600 | 28932 ft | 188 kts | 221° |
| 2026-05-07 14:56 | 36.70277 | -76.88467 | 28932 ft | 188 kts | 221° |
| 2026-05-07 14:56 | 36.69174 | -76.89335 | 28932 ft | 187 kts | 221° |
| 2026-05-07 14:56 | 36.68073 | -76.90200 | 28932 ft | 187 kts | 221° |
| 2026-05-07 14:56 | 36.66973 | -76.91063 | 28936 ft | 187 kts | 221° |
| 2026-05-07 14:57 | 36.65874 | -76.91926 | 28934 ft | 186 kts | 221° |
| 2026-05-07 14:57 | 36.64778 | -76.92784 | 28932 ft | 186 kts | 221° |
| 2026-05-07 14:57 | 36.63686 | -76.93641 | 28932 ft | 185 kts | 221° |
| 2026-05-07 14:57 | 36.62596 | -76.94496 | 28932 ft | 185 kts | 221° |
| 2026-05-07 14:58 | 36.61507 | -76.95349 | 28938 ft | 185 kts | 221° |
| 2026-05-07 14:58 | 36.60421 | -76.96200 | 28931 ft | 184 kts | 221° |
| 2026-05-07 14:58 | 36.59335 | -76.97050 | 28932 ft | 184 kts | 221° |
| 2026-05-07 14:58 | 36.58252 | -76.97897 | 28929 ft | 184 kts | 221° |
| 2026-05-07 14:59 | 36.57172 | -76.98743 | 28933 ft | 183 kts | 221° |
| 2026-05-07 14:59 | 36.56093 | -76.99586 | 28904 ft | 183 kts | 222° |
| 2026-05-07 14:59 | 36.55019 | -77.00428 | 28901 ft | 182 kts | 222° |
| 2026-05-07 14:59 | 36.53945 | -77.01267 | 28900 ft | 182 kts | 222° |
| 2026-05-07 15:00 | 36.52886 | -77.02094 | 28903 ft | 182 kts | 221° |
| 2026-05-07 15:00 | 36.51819 | -77.02930 | 28882 ft | 181 kts | 221° |
| 2026-05-07 15:00 | 36.50754 | -77.03767 | 28896 ft | 181 kts | 221° |
| 2026-05-07 15:00 | 36.49682 | -77.04604 | 28895 ft | 183 kts | 221° |
| 2026-05-07 15:01 | 36.48602 | -77.05445 | 28893 ft | 184 kts | 221° |
| 2026-05-07 15:01 | 36.47516 | -77.06291 | 28891 ft | 184 kts | 221° |
| 2026-05-07 15:01 | 36.46427 | -77.07139 | 28890 ft | 185 kts | 221° |
| 2026-05-07 15:01 | 36.45336 | -77.07990 | 28888 ft | 185 kts | 221° |
| 2026-05-07 15:02 | 36.44246 | -77.08838 | 28886 ft | 185 kts | 221° |
| 2026-05-07 15:02 | 36.43156 | -77.09687 | 28883 ft | 185 kts | 221° |
| 2026-05-07 15:02 | 36.42065 | -77.10537 | 28883 ft | 185 kts | 221° |
| 2026-05-07 15:02 | 36.40978 | -77.11383 | 28881 ft | 185 kts | 221° |
| 2026-05-07 15:03 | 36.39890 | -77.12230 | 28881 ft | 184 kts | 221° |
| 2026-05-07 15:03 | 36.38802 | -77.13075 | 28880 ft | 184 kts | 221° |
| 2026-05-07 15:03 | 36.37714 | -77.13921 | 28879 ft | 184 kts | 221° |
| 2026-05-07 15:03 | 36.36632 | -77.14763 | 28879 ft | 184 kts | 221° |
| 2026-05-07 15:04 | 36.35550 | -77.15605 | 28879 ft | 183 kts | 221° |
| 2026-05-07 15:04 | 36.34471 | -77.16443 | 28879 ft | 183 kts | 221° |
| 2026-05-07 15:04 | 36.33392 | -77.17281 | 28879 ft | 183 kts | 221° |
| 2026-05-07 15:04 | 36.32318 | -77.18115 | 28879 ft | 182 kts | 221° |
| 2026-05-07 15:05 | 36.31244 | -77.18949 | 28879 ft | 182 kts | 221° |
| 2026-05-07 15:05 | 36.30173 | -77.19780 | 28879 ft | 181 kts | 221° |
| 2026-05-07 15:05 | 36.29108 | -77.20609 | 28878 ft | 181 kts | 221° |
| 2026-05-07 15:05 | 36.28052 | -77.21426 | 28879 ft | 181 kts | 221° |
| 2026-05-07 15:06 | 36.26983 | -77.22259 | 28881 ft | 182 kts | 221° |
| 2026-05-07 15:06 | 36.25910 | -77.23090 | 28887 ft | 182 kts | 221° |
| 2026-05-07 15:06 | 36.24834 | -77.23917 | 28880 ft | 181 kts | 221° |
| 2026-05-07 15:06 | 36.23768 | -77.24742 | 28880 ft | 180 kts | 222° |
| 2026-05-07 15:07 | 36.22708 | -77.25563 | 28880 ft | 179 kts | 222° |
| 2026-05-07 15:07 | 36.21653 | -77.26380 | 28880 ft | 179 kts | 222° |
| 2026-05-07 15:07 | 36.20600 | -77.27195 | 28897 ft | 178 kts | 222° |
| 2026-05-07 15:07 | 36.19551 | -77.28007 | 28896 ft | 178 kts | 222° |
| 2026-05-07 15:08 | 36.18502 | -77.28818 | 28895 ft | 178 kts | 222° |
| 2026-05-07 15:08 | 36.17456 | -77.29626 | 28896 ft | 177 kts | 222° |
| 2026-05-07 15:08 | 36.16410 | -77.30435 | 28894 ft | 177 kts | 222° |
| 2026-05-07 15:08 | 36.15366 | -77.31241 | 28894 ft | 177 kts | 222° |
| 2026-05-07 15:09 | 36.14325 | -77.32045 | 28894 ft | 177 kts | 222° |
| 2026-05-07 15:09 | 36.13284 | -77.32849 | 28893 ft | 176 kts | 222° |
| 2026-05-07 15:09 | 36.12244 | -77.33651 | 28893 ft | 176 kts | 222° |
| 2026-05-07 15:09 | 36.11205 | -77.34453 | 28892 ft | 176 kts | 222° |
| 2026-05-07 15:10 | 36.10164 | -77.35255 | 28881 ft | 176 kts | 222° |
| 2026-05-07 15:10 | 36.09126 | -77.36055 | 28882 ft | 176 kts | 222° |
| 2026-05-07 15:10 | 36.08090 | -77.36854 | 28880 ft | 176 kts | 222° |
| 2026-05-07 15:10 | 36.07055 | -77.37654 | 28868 ft | 175 kts | 221° |
| 2026-05-07 15:11 | 36.06020 | -77.38458 | 28883 ft | 177 kts | 221° |
| 2026-05-07 15:11 | 36.04969 | -77.39268 | 28881 ft | 179 kts | 220° |
| 2026-05-07 15:11 | 36.03907 | -77.40084 | 28886 ft | 181 kts | 220° |
| 2026-05-07 15:11 | 36.02835 | -77.40907 | 28886 ft | 182 kts | 220° |
| 2026-05-07 15:12 | 36.01755 | -77.41735 | 28872 ft | 183 kts | 220° |
| 2026-05-07 15:12 | 36.00680 | -77.42561 | 28878 ft | 185 kts | 220° |
| 2026-05-07 15:12 | 35.99587 | -77.43400 | 28884 ft | 185 kts | 220° |
| 2026-05-07 15:12 | 35.98490 | -77.44242 | 28883 ft | 186 kts | 220° |
| 2026-05-07 15:13 | 35.97389 | -77.45087 | 28883 ft | 187 kts | 220° |
| 2026-05-07 15:13 | 35.96287 | -77.45933 | 28879 ft | 187 kts | 220° |
| 2026-05-07 15:13 | 35.95183 | -77.46780 | 28883 ft | 187 kts | 220° |
| 2026-05-07 15:13 | 35.94075 | -77.47630 | 28883 ft | 187 kts | 220° |
| 2026-05-07 15:14 | 35.92970 | -77.48478 | 28883 ft | 187 kts | 220° |
| 2026-05-07 15:14 | 35.91865 | -77.49325 | 28883 ft | 187 kts | 220° |
| 2026-05-07 15:14 | 35.90757 | -77.50174 | 28882 ft | 187 kts | 220° |
| 2026-05-07 15:14 | 35.89649 | -77.51023 | 28882 ft | 187 kts | 220° |
| 2026-05-07 15:15 | 35.88540 | -77.51873 | 28868 ft | 187 kts | 220° |
| 2026-05-07 15:15 | 35.87432 | -77.52722 | 28883 ft | 188 kts | 220° |
| 2026-05-07 15:15 | 35.86322 | -77.53571 | 28869 ft | 188 kts | 220° |
| 2026-05-07 15:15 | 35.85214 | -77.54419 | 28864 ft | 188 kts | 220° |
| 2026-05-07 15:16 | 35.84105 | -77.55270 | 28874 ft | 188 kts | 220° |
| 2026-05-07 15:16 | 35.82992 | -77.56123 | 28875 ft | 189 kts | 219° |
| 2026-05-07 15:16 | 35.81872 | -77.56979 | 28875 ft | 190 kts | 219° |
| 2026-05-07 15:16 | 35.80744 | -77.57840 | 28875 ft | 191 kts | 219° |
| 2026-05-07 15:17 | 35.79630 | -77.58690 | 28875 ft | 192 kts | 219° |
| 2026-05-07 15:17 | 35.78496 | -77.59556 | 28878 ft | 192 kts | 219° |
| 2026-05-07 15:17 | 35.77358 | -77.60421 | 28875 ft | 192 kts | 219° |
| 2026-05-07 15:17 | 35.76225 | -77.61285 | 28866 ft | 191 kts | 219° |
| 2026-05-07 15:18 | 35.75092 | -77.62150 | 28874 ft | 191 kts | 219° |
| 2026-05-07 15:18 | 35.73961 | -77.63013 | 28875 ft | 191 kts | 219° |
| 2026-05-07 15:18 | 35.72830 | -77.63875 | 28875 ft | 191 kts | 219° |
| 2026-05-07 15:18 | 35.71700 | -77.64736 | 28871 ft | 191 kts | 219° |
| 2026-05-07 15:19 | 35.70570 | -77.65597 | 28878 ft | 191 kts | 219° |
| 2026-05-07 15:19 | 35.69435 | -77.66462 | 28878 ft | 191 kts | 219° |
| 2026-05-07 15:19 | 35.68303 | -77.67324 | 28877 ft | 192 kts | 219° |
| 2026-05-07 15:19 | 35.67169 | -77.68187 | 28867 ft | 192 kts | 219° |
| 2026-05-07 15:20 | 35.66032 | -77.69051 | 28860 ft | 192 kts | 219° |
| 2026-05-07 15:20 | 35.64894 | -77.69917 | 28876 ft | 192 kts | 219° |
| 2026-05-07 15:20 | 35.63757 | -77.70781 | 28875 ft | 192 kts | 219° |
| 2026-05-07 15:20 | 35.62620 | -77.71645 | 28876 ft | 192 kts | 219° |
| 2026-05-07 15:21 | 35.61485 | -77.72509 | 28854 ft | 191 kts | 219° |
| 2026-05-07 15:21 | 35.60355 | -77.73371 | 28875 ft | 191 kts | 219° |
| 2026-05-07 15:21 | 35.59219 | -77.74235 | 28886 ft | 192 kts | 219° |
| 2026-05-07 15:21 | 35.58093 | -77.75089 | 28887 ft | 193 kts | 219° |
| 2026-05-07 15:22 | 35.56947 | -77.75958 | 28888 ft | 194 kts | 219° |
| 2026-05-07 15:22 | 35.55795 | -77.76831 | 28889 ft | 195 kts | 219° |
| 2026-05-07 15:22 | 35.54636 | -77.77709 | 28890 ft | 196 kts | 219° |
| 2026-05-07 15:22 | 35.53471 | -77.78591 | 28890 ft | 197 kts | 218° |
| 2026-05-07 15:23 | 35.52299 | -77.79478 | 28891 ft | 199 kts | 218° |
| 2026-05-07 15:23 | 35.51121 | -77.80370 | 28891 ft | 200 kts | 218° |
| 2026-05-07 15:23 | 35.49934 | -77.81267 | 28903 ft | 201 kts | 218° |
| 2026-05-07 15:23 | 35.48742 | -77.82168 | 28904 ft | 202 kts | 218° |
| 2026-05-07 15:24 | 35.47541 | -77.83075 | 28904 ft | 203 kts | 218° |
| 2026-05-07 15:24 | 35.46334 | -77.83987 | 28906 ft | 204 kts | 218° |
| 2026-05-07 15:24 | 35.45119 | -77.84905 | 28906 ft | 206 kts | 218° |
| 2026-05-07 15:24 | 35.43894 | -77.85829 | 28906 ft | 207 kts | 218° |
| 2026-05-07 15:25 | 35.42664 | -77.86758 | 28906 ft | 208 kts | 218° |
| 2026-05-07 15:25 | 35.41429 | -77.87690 | 28905 ft | 209 kts | 218° |
| 2026-05-07 15:25 | 35.40186 | -77.88628 | 28906 ft | 210 kts | 218° |
| 2026-05-07 15:25 | 35.38936 | -77.89570 | 28877 ft | 211 kts | 218° |
| 2026-05-07 15:26 | 35.37681 | -77.90516 | 28877 ft | 213 kts | 218° |
| 2026-05-07 15:26 | 35.36434 | -77.91456 | 28877 ft | 214 kts | 218° |
| 2026-05-07 15:26 | 35.35145 | -77.92426 | 28876 ft | 215 kts | 218° |
| 2026-05-07 15:26 | 35.33867 | -77.93388 | 28876 ft | 216 kts | 218° |
| 2026-05-07 15:27 | 35.32583 | -77.94355 | 28876 ft | 217 kts | 217° |
| 2026-05-07 15:27 | 35.31306 | -77.95315 | 28876 ft | 219 kts | 217° |
| 2026-05-07 15:27 | 35.29992 | -77.96305 | 28876 ft | 220 kts | 218° |
| 2026-05-07 15:27 | 35.28689 | -77.97283 | 28875 ft | 221 kts | 218° |
| 2026-05-07 15:28 | 35.27364 | -77.98277 | 28873 ft | 222 kts | 218° |
| 2026-05-07 15:28 | 35.26043 | -77.99269 | 28875 ft | 224 kts | 218° |
| 2026-05-07 15:28 | 35.24730 | -78.00255 | 28874 ft | 225 kts | 218° |
| 2026-05-07 15:28 | 35.23375 | -78.01272 | 28873 ft | 226 kts | 218° |
| 2026-05-07 15:29 | 35.22029 | -78.02281 | 28872 ft | 227 kts | 218° |
| 2026-05-07 15:29 | 35.20692 | -78.03281 | 28872 ft | 229 kts | 217° |
| 2026-05-07 15:29 | 35.19331 | -78.04298 | 28871 ft | 230 kts | 217° |
| 2026-05-07 15:29 | 35.17969 | -78.05313 | 28870 ft | 231 kts | 217° |
| 2026-05-07 15:30 | 35.16584 | -78.06343 | 28869 ft | 232 kts | 217° |
| 2026-05-07 15:30 | 35.15202 | -78.07370 | 28896 ft | 233 kts | 217° |
| 2026-05-07 15:30 | 35.13811 | -78.08403 | 28898 ft | 235 kts | 217° |
| 2026-05-07 15:30 | 35.12413 | -78.09439 | 28899 ft | 236 kts | 217° |
| 2026-05-07 15:31 | 35.11006 | -78.10479 | 28898 ft | 236 kts | 217° |
| 2026-05-07 15:31 | 35.10056 | -78.11182 | 28899 ft | 237 kts | 217° |
| 2026-05-07 15:31 | 35.08645 | -78.12224 | 28899 ft | 237 kts | 217° |
| 2026-05-07 15:31 | 35.07249 | -78.13253 | 28899 ft | 237 kts | 217° |
| 2026-05-07 15:32 | 35.05815 | -78.14309 | 28899 ft | 238 kts | 217° |
| 2026-05-07 15:32 | 35.04400 | -78.15351 | 28898 ft | 238 kts | 217° |
| 2026-05-07 15:32 | 35.02985 | -78.16393 | 28897 ft | 238 kts | 217° |
| 2026-05-07 15:32 | 35.01590 | -78.17422 | 28891 ft | 237 kts | 217° |
| 2026-05-07 15:33 | 35.00199 | -78.18493 | 28896 ft | 237 kts | 217° |
| 2026-05-07 15:33 | 34.98788 | -78.19541 | 28893 ft | 237 kts | 217° |
| 2026-05-07 15:33 | 34.97374 | -78.20581 | 28894 ft | 237 kts | 216° |
| 2026-05-07 15:33 | 34.95961 | -78.21621 | 28893 ft | 237 kts | 217° |
| 2026-05-07 15:34 | 34.94569 | -78.22690 | 28898 ft | 236 kts | 217° |
| 2026-05-07 15:34 | 34.93165 | -78.23733 | 28896 ft | 236 kts | 217° |
| 2026-05-07 15:34 | 34.91759 | -78.24770 | 28893 ft | 235 kts | 217° |
| 2026-05-07 15:34 | 34.90359 | -78.25805 | 28896 ft | 236 kts | 217° |
| 2026-05-07 15:35 | 34.88957 | -78.26840 | 28895 ft | 236 kts | 217° |
| 2026-05-07 15:35 | 34.87562 | -78.27895 | 28895 ft | 236 kts | 218° |
| 2026-05-07 15:35 | 34.86165 | -78.28940 | 28894 ft | 236 kts | 217° |
| 2026-05-07 15:35 | 34.84758 | -78.29979 | 28892 ft | 236 kts | 217° |
| 2026-05-07 15:36 | 34.83389 | -78.30989 | 28893 ft | 236 kts | 217° |
| 2026-05-07 15:36 | 34.81951 | -78.32047 | 28889 ft | 236 kts | 217° |
| 2026-05-07 15:36 | 34.80558 | -78.33092 | 28883 ft | 235 kts | 218° |
| 2026-05-07 15:36 | 34.79168 | -78.34137 | 28887 ft | 235 kts | 217° |
| 2026-05-07 15:37 | 34.77772 | -78.35169 | 28884 ft | 235 kts | 217° |
| 2026-05-07 15:37 | 34.76375 | -78.36198 | 28882 ft | 235 kts | 217° |
| 2026-05-07 15:37 | 34.74980 | -78.37224 | 28880 ft | 234 kts | 217° |
| 2026-05-07 15:37 | 34.73583 | -78.38252 | 28882 ft | 234 kts | 217° |
| 2026-05-07 15:38 | 34.72201 | -78.39274 | 28875 ft | 234 kts | 218° |
| 2026-05-07 15:38 | 34.70834 | -78.40311 | 28888 ft | 234 kts | 217° |
| 2026-05-07 15:38 | 34.69448 | -78.41336 | 28888 ft | 234 kts | 217° |
| 2026-05-07 15:38 | 34.68061 | -78.42355 | 28890 ft | 232 kts | 218° |
| 2026-05-07 15:39 | 34.66664 | -78.43379 | 28893 ft | 231 kts | 218° |
| 2026-05-07 15:39 | 34.65291 | -78.44388 | 28895 ft | 230 kts | 218° |
| 2026-05-07 15:39 | 34.63921 | -78.45393 | 28896 ft | 230 kts | 218° |
| 2026-05-07 15:39 | 34.62588 | -78.46397 | 28901 ft | 229 kts | 219° |
| 2026-05-07 15:40 | 34.61207 | -78.47421 | 28900 ft | 229 kts | 218° |
| 2026-05-07 15:40 | 34.59845 | -78.48423 | 28900 ft | 229 kts | 218° |
| 2026-05-07 15:40 | 34.58488 | -78.49419 | 28900 ft | 228 kts | 218° |
| 2026-05-07 15:40 | 34.57128 | -78.50418 | 28900 ft | 228 kts | 218° |
| 2026-05-07 15:41 | 34.55791 | -78.51400 | 28900 ft | 227 kts | 218° |
| 2026-05-07 15:41 | 34.54437 | -78.52394 | 28900 ft | 227 kts | 218° |
| 2026-05-07 15:41 | 34.53088 | -78.53385 | 28900 ft | 227 kts | 218° |
| 2026-05-07 15:41 | 34.51739 | -78.54377 | 28901 ft | 226 kts | 218° |
| 2026-05-07 15:42 | 34.50394 | -78.55364 | 28899 ft | 226 kts | 218° |
| 2026-05-07 15:42 | 34.49051 | -78.56356 | 28891 ft | 225 kts | 219° |
| 2026-05-07 15:42 | 34.47718 | -78.57352 | 28897 ft | 225 kts | 219° |
| 2026-05-07 15:42 | 34.46379 | -78.58339 | 28896 ft | 225 kts | 218° |
| 2026-05-07 15:43 | 34.45042 | -78.59321 | 28892 ft | 224 kts | 219° |
| 2026-05-07 15:43 | 34.43711 | -78.60299 | 28900 ft | 224 kts | 219° |
| 2026-05-07 15:43 | 34.42381 | -78.61276 | 28904 ft | 223 kts | 219° |
| 2026-05-07 15:43 | 34.41054 | -78.62252 | 28907 ft | 223 kts | 219° |
| 2026-05-07 15:44 | 34.39728 | -78.63225 | 28911 ft | 223 kts | 219° |
| 2026-05-07 15:44 | 34.38405 | -78.64198 | 28913 ft | 223 kts | 219° |
| 2026-05-07 15:44 | 34.37078 | -78.65172 | 28916 ft | 222 kts | 219° |
| 2026-05-07 15:44 | 34.35756 | -78.66144 | 28919 ft | 222 kts | 219° |
| 2026-05-07 15:45 | 34.34436 | -78.67114 | 28920 ft | 222 kts | 219° |
| 2026-05-07 15:45 | 34.33118 | -78.68083 | 28921 ft | 222 kts | 219° |
| 2026-05-07 15:45 | 34.31799 | -78.69052 | 28916 ft | 222 kts | 219° |
| 2026-05-07 15:45 | 34.30483 | -78.70020 | 28920 ft | 221 kts | 219° |
| 2026-05-07 15:46 | 34.27855 | -78.71953 | 28920 ft | 221 kts | 219° |
| 2026-05-07 15:46 | 34.26540 | -78.72920 | 28920 ft | 221 kts | 219° |
| 2026-05-07 15:46 | 34.25228 | -78.73884 | 28921 ft | 221 kts | 219° |
| 2026-05-07 15:47 | 34.23921 | -78.74844 | 28920 ft | 221 kts | 219° |
| 2026-05-07 15:47 | 34.22606 | -78.75809 | 28874 ft | 221 kts | 219° |
| 2026-05-07 15:47 | 34.21296 | -78.76771 | 28859 ft | 220 kts | 220° |
| 2026-05-07 15:47 | 34.19991 | -78.77730 | 28875 ft | 219 kts | 220° |
| 2026-05-07 15:48 | 34.18689 | -78.78688 | 28876 ft | 219 kts | 220° |
| 2026-05-07 15:48 | 34.17387 | -78.79646 | 28876 ft | 219 kts | 220° |
| 2026-05-07 15:48 | 34.16104 | -78.80589 | 28876 ft | 219 kts | 220° |
| 2026-05-07 15:48 | 34.14803 | -78.81545 | 28880 ft | 219 kts | 220° |
| 2026-05-07 15:49 | 34.13504 | -78.82499 | 28873 ft | 219 kts | 220° |
| 2026-05-07 15:49 | 34.12207 | -78.83453 | 28873 ft | 218 kts | 220° |
| 2026-05-07 15:49 | 34.10908 | -78.84407 | 28877 ft | 218 kts | 220° |
| 2026-05-07 15:49 | 34.09620 | -78.85351 | 28878 ft | 218 kts | 220° |
| 2026-05-07 15:50 | 34.08314 | -78.86304 | 28876 ft | 218 kts | 220° |
| 2026-05-07 15:50 | 34.07014 | -78.87248 | 28876 ft | 218 kts | 220° |
| 2026-05-07 15:50 | 34.05718 | -78.88190 | 28877 ft | 218 kts | 220° |
| 2026-05-07 15:50 | 34.04422 | -78.89131 | 28879 ft | 217 kts | 220° |
| 2026-05-07 15:51 | 34.03126 | -78.90072 | 28878 ft | 217 kts | 220° |
| 2026-05-07 15:51 | 34.01834 | -78.91011 | 28882 ft | 217 kts | 220° |
| 2026-05-07 15:51 | 34.00542 | -78.91947 | 28881 ft | 217 kts | 220° |
| 2026-05-07 15:51 | 33.99248 | -78.92886 | 28882 ft | 217 kts | 220° |
| 2026-05-07 15:52 | 33.97958 | -78.93822 | 28882 ft | 216 kts | 220° |
| 2026-05-07 15:52 | 33.96673 | -78.94754 | 28878 ft | 215 kts | 220° |
| 2026-05-07 15:52 | 33.95390 | -78.95687 | 28882 ft | 215 kts | 220° |
| 2026-05-07 15:52 | 33.94106 | -78.96616 | 28882 ft | 215 kts | 220° |
| 2026-05-07 15:53 | 33.92820 | -78.97547 | 28884 ft | 215 kts | 220° |
| 2026-05-07 15:53 | 33.91543 | -78.98470 | 28885 ft | 215 kts | 220° |
| 2026-05-07 15:53 | 33.90251 | -78.99405 | 28885 ft | 215 kts | 220° |
| 2026-05-07 15:53 | 33.88968 | -79.00334 | 28885 ft | 215 kts | 220° |
| 2026-05-07 15:54 | 33.87686 | -79.01260 | 28885 ft | 215 kts | 220° |
| 2026-05-07 15:54 | 33.86404 | -79.02187 | 28884 ft | 215 kts | 220° |
| 2026-05-07 15:54 | 33.85142 | -79.03099 | 28885 ft | 214 kts | 220° |
| 2026-05-07 15:54 | 33.83864 | -79.04023 | 28885 ft | 214 kts | 220° |
| 2026-05-07 15:55 | 33.82588 | -79.04944 | 28888 ft | 214 kts | 220° |
| 2026-05-07 15:55 | 33.81313 | -79.05864 | 28889 ft | 213 kts | 220° |
| 2026-05-07 15:55 | 33.80042 | -79.06778 | 28884 ft | 213 kts | 220° |
| 2026-05-07 15:55 | 33.78775 | -79.07693 | 28884 ft | 212 kts | 220° |
| 2026-05-07 15:56 | 33.77525 | -79.08595 | 28889 ft | 211 kts | 220° |
| 2026-05-07 15:56 | 33.76256 | -79.09510 | 28884 ft | 211 kts | 220° |
| 2026-05-07 15:56 | 33.75000 | -79.10415 | 28884 ft | 210 kts | 220° |
| 2026-05-07 15:56 | 33.73746 | -79.11319 | 28918 ft | 210 kts | 220° |
| 2026-05-07 15:57 | 33.72499 | -79.12217 | 28872 ft | 208 kts | 219° |
| 2026-05-07 15:57 | 33.71257 | -79.13119 | 28880 ft | 209 kts | 219° |
| 2026-05-07 15:57 | 33.70005 | -79.14021 | 28882 ft | 210 kts | 219° |
| 2026-05-07 15:57 | 33.68745 | -79.14924 | 28883 ft | 211 kts | 219° |
| 2026-05-07 15:58 | 33.67481 | -79.15831 | 28882 ft | 212 kts | 219° |
| 2026-05-07 15:58 | 33.66217 | -79.16739 | 28883 ft | 212 kts | 219° |
| 2026-05-07 15:58 | 33.64951 | -79.17648 | 28883 ft | 212 kts | 219° |
| 2026-05-07 15:58 | 33.63687 | -79.18556 | 28883 ft | 212 kts | 219° |
| 2026-05-07 15:59 | 33.62416 | -79.19469 | 28884 ft | 212 kts | 219° |
| 2026-05-07 15:59 | 33.61147 | -79.20379 | 28884 ft | 212 kts | 219° |
| 2026-05-07 15:59 | 33.59878 | -79.21289 | 28885 ft | 212 kts | 219° |
| 2026-05-07 15:59 | 33.58626 | -79.22187 | 28885 ft | 212 kts | 219° |
| 2026-05-07 16:00 | 33.57360 | -79.23095 | 28901 ft | 212 kts | 219° |
| 2026-05-07 16:00 | 33.56096 | -79.24001 | 28904 ft | 212 kts | 219° |
| 2026-05-07 16:00 | 33.54830 | -79.24907 | 28906 ft | 212 kts | 219° |
| 2026-05-07 16:00 | 33.53564 | -79.25814 | 28912 ft | 212 kts | 219° |
| 2026-05-07 16:01 | 33.52301 | -79.26717 | 28912 ft | 213 kts | 219° |
| 2026-05-07 16:01 | 33.51018 | -79.27635 | 28913 ft | 214 kts | 219° |
| 2026-05-07 16:01 | 33.49735 | -79.28552 | 28913 ft | 215 kts | 219° |
| 2026-05-07 16:01 | 33.48449 | -79.29472 | 28903 ft | 216 kts | 217° |
| 2026-05-07 16:02 | 33.47157 | -79.30398 | 28913 ft | 217 kts | 217° |
| 2026-05-07 16:02 | 33.45851 | -79.31329 | 28904 ft | 219 kts | 217° |
| 2026-05-07 16:02 | 33.44534 | -79.32267 | 28905 ft | 221 kts | 217° |
| 2026-05-07 16:02 | 33.43207 | -79.33213 | 28906 ft | 223 kts | 217° |
| 2026-05-07 16:03 | 33.41880 | -79.34160 | 28900 ft | 224 kts | 217° |
| 2026-05-07 16:03 | 33.40533 | -79.35120 | 28906 ft | 225 kts | 217° |
| 2026-05-07 16:03 | 33.39184 | -79.36081 | 28906 ft | 226 kts | 217° |
| 2026-05-07 16:03 | 33.37832 | -79.37045 | 28905 ft | 227 kts | 217° |
| 2026-05-07 16:04 | 33.36472 | -79.38013 | 28906 ft | 228 kts | 217° |
| 2026-05-07 16:04 | 33.35108 | -79.38984 | 28905 ft | 229 kts | 217° |
| 2026-05-07 16:04 | 33.33735 | -79.39960 | 28904 ft | 230 kts | 217° |
| 2026-05-07 16:04 | 33.32357 | -79.40941 | 28904 ft | 231 kts | 217° |
| 2026-05-07 16:05 | 33.30971 | -79.41927 | 28900 ft | 232 kts | 216° |
| 2026-05-07 16:05 | 33.29579 | -79.42916 | 28907 ft | 234 kts | 217° |
| 2026-05-07 16:05 | 33.28180 | -79.43905 | 28903 ft | 234 kts | 217° |
| 2026-05-07 16:05 | 33.26771 | -79.44901 | 28901 ft | 235 kts | 216° |
| 2026-05-07 16:06 | 33.25361 | -79.45896 | 28901 ft | 236 kts | 216° |
| 2026-05-07 16:06 | 33.23948 | -79.46891 | 28897 ft | 236 kts | 216° |
| 2026-05-07 16:06 | 33.22530 | -79.47893 | 28902 ft | 237 kts | 216° |
| 2026-05-07 16:06 | 33.21104 | -79.48898 | 28904 ft | 239 kts | 216° |
| 2026-05-07 16:07 | 33.19666 | -79.49909 | 28905 ft | 241 kts | 216° |
| 2026-05-07 16:07 | 33.18239 | -79.50910 | 28897 ft | 242 kts | 216° |
| 2026-05-07 16:07 | 33.16786 | -79.51927 | 28901 ft | 244 kts | 216° |
| 2026-05-07 16:07 | 33.15313 | -79.52954 | 28906 ft | 245 kts | 216° |
| 2026-05-07 16:08 | 33.13837 | -79.53982 | 28905 ft | 247 kts | 216° |
| 2026-05-07 16:08 | 33.12350 | -79.55014 | 28904 ft | 248 kts | 215° |
| 2026-05-07 16:08 | 33.10854 | -79.56050 | 28905 ft | 249 kts | 215° |
| 2026-05-07 16:08 | 33.09365 | -79.57115 | 28899 ft | 249 kts | 217° |
| 2026-05-07 16:09 | 33.07870 | -79.58184 | 28905 ft | 252 kts | 215° |
| 2026-05-07 16:09 | 33.06349 | -79.59236 | 28898 ft | 254 kts | 215° |
| 2026-05-07 16:09 | 33.04834 | -79.60319 | 28894 ft | 254 kts | 217° |
| 2026-05-07 16:09 | 33.03324 | -79.61395 | 28913 ft | 256 kts | 215° |
| 2026-05-07 16:10 | 33.01763 | -79.62467 | 28907 ft | 258 kts | 215° |
| 2026-05-07 16:10 | 33.00236 | -79.63577 | 28912 ft | 258 kts | 216° |
| 2026-05-07 16:10 | 32.98681 | -79.64663 | 28910 ft | 260 kts | 215° |
| 2026-05-07 16:10 | 32.97116 | -79.65745 | 28894 ft | 260 kts | 216° |
| 2026-05-07 16:11 | 32.95570 | -79.66869 | 28915 ft | 261 kts | 215° |
| 2026-05-07 16:11 | 32.93994 | -79.67951 | 28911 ft | 262 kts | 214° |
| 2026-05-07 16:11 | 32.92435 | -79.69069 | 28929 ft | 261 kts | 216° |
| 2026-05-07 16:11 | 32.90866 | -79.70172 | 28936 ft | 263 kts | 214° |
| 2026-05-07 16:12 | 32.89286 | -79.71260 | 28917 ft | 262 kts | 216° |
| 2026-05-07 16:12 | 32.87754 | -79.72373 | 28940 ft | 262 kts | 215° |
| 2026-05-07 16:12 | 32.86149 | -79.73472 | 28929 ft | 263 kts | 214° |
| 2026-05-07 16:12 | 32.84584 | -79.74595 | 28930 ft | 262 kts | 216° |
| 2026-05-07 16:13 | 32.83013 | -79.75694 | 28936 ft | 263 kts | 214° |
| 2026-05-07 16:13 | 32.81429 | -79.76786 | 28918 ft | 262 kts | 216° |
| 2026-05-07 16:13 | 32.79872 | -79.77911 | 28939 ft | 262 kts | 215° |
| 2026-05-07 16:13 | 32.78306 | -79.78979 | 28926 ft | 263 kts | 214° |
| 2026-05-07 16:14 | 32.76745 | -79.80101 | 28926 ft | 262 kts | 216° |
| 2026-05-07 16:14 | 32.75167 | -79.81197 | 28931 ft | 263 kts | 214° |
| 2026-05-07 16:14 | 32.73588 | -79.82293 | 28895 ft | 262 kts | 216° |
| 2026-05-07 16:14 | 32.72028 | -79.83415 | 28940 ft | 263 kts | 214° |
| 2026-05-07 16:15 | 32.70444 | -79.84495 | 28937 ft | 264 kts | 214° |
| 2026-05-07 16:15 | 32.68868 | -79.85618 | 28935 ft | 263 kts | 216° |
| 2026-05-07 16:15 | 32.67288 | -79.86722 | 28941 ft | 264 kts | 214° |
| 2026-05-07 16:15 | 32.65692 | -79.87814 | 28925 ft | 264 kts | 215° |
| 2026-05-07 16:16 | 32.64124 | -79.88945 | 28946 ft | 264 kts | 214° |
| 2026-05-07 16:16 | 32.62526 | -79.90033 | 28939 ft | 265 kts | 214° |
| 2026-05-07 16:16 | 32.60943 | -79.91160 | 28934 ft | 264 kts | 216° |
| 2026-05-07 16:16 | 32.59355 | -79.92266 | 28940 ft | 266 kts | 214° |
| 2026-05-07 16:17 | 32.57793 | -79.93333 | 28925 ft | 265 kts | 215° |
| 2026-05-07 16:17 | 32.56202 | -79.94478 | 28943 ft | 265 kts | 214° |
| 2026-05-07 16:17 | 32.54574 | -79.95582 | 28934 ft | 266 kts | 214° |
| 2026-05-07 16:17 | 32.52995 | -79.96709 | 28935 ft | 265 kts | 215° |
| 2026-05-07 16:18 | 32.51410 | -79.97805 | 28937 ft | 266 kts | 214° |
| 2026-05-07 16:18 | 32.49800 | -79.98911 | 28919 ft | 265 kts | 216° |
| 2026-05-07 16:18 | 32.48766 | -79.99661 | 28923 ft | 265 kts | 215° |
| 2026-05-07 16:18 | 32.47161 | -80.00758 | 28933 ft | 266 kts | 214° |
| 2026-05-07 16:19 | 32.45567 | -80.01867 | 28918 ft | 265 kts | 216° |
| 2026-05-07 16:19 | 32.43459 | -80.03342 | 28936 ft | 266 kts | 214° |
| 2026-05-07 16:19 | 32.41852 | -80.04438 | 28918 ft | 266 kts | 216° |
| 2026-05-07 16:19 | 32.40273 | -80.05569 | 28936 ft | 266 kts | 214° |
| 2026-05-07 16:20 | 32.38661 | -80.06657 | 28930 ft | 267 kts | 214° |
| 2026-05-07 16:20 | 32.37075 | -80.07783 | 28929 ft | 266 kts | 216° |
| 2026-05-07 16:20 | 32.36021 | -80.08517 | 28937 ft | 267 kts | 214° |
| 2026-05-07 16:20 | 32.34407 | -80.09604 | 28921 ft | 267 kts | 215° |
| 2026-05-07 16:21 | 32.32802 | -80.10754 | 28942 ft | 266 kts | 215° |
| 2026-05-07 16:21 | 32.31204 | -80.11838 | 28937 ft | 267 kts | 214° |
| 2026-05-07 16:21 | 32.29617 | -80.12947 | 28925 ft | 266 kts | 216° |
| 2026-05-07 16:21 | 32.28022 | -80.14059 | 28940 ft | 267 kts | 214° |
| 2026-05-07 16:22 | 32.26411 | -80.15147 | 28925 ft | 266 kts | 215° |
| 2026-05-07 16:22 | 32.24829 | -80.16278 | 28946 ft | 266 kts | 214° |
| 2026-05-07 16:22 | 32.23214 | -80.17362 | 28926 ft | 267 kts | 214° |
| 2026-05-07 16:22 | 32.21632 | -80.18481 | 28934 ft | 264 kts | 216° |
| 2026-05-07 16:23 | 32.20040 | -80.19578 | 28947 ft | 265 kts | 214° |
| 2026-05-07 16:23 | 32.18439 | -80.20663 | 28930 ft | 264 kts | 216° |
| 2026-05-07 16:23 | 32.16867 | -80.21780 | 28951 ft | 265 kts | 214° |
| 2026-05-07 16:23 | 32.15262 | -80.22856 | 28941 ft | 265 kts | 214° |
| 2026-05-07 16:24 | 32.13707 | -80.23960 | 28939 ft | 264 kts | 215° |
| 2026-05-07 16:24 | 32.12100 | -80.25055 | 28946 ft | 265 kts | 214° |
| 2026-05-07 16:24 | 32.10510 | -80.26143 | 28931 ft | 264 kts | 216° |
| 2026-05-07 16:24 | 32.08923 | -80.27259 | 28949 ft | 264 kts | 214° |
| 2026-05-07 16:25 | 32.07318 | -80.28332 | 28937 ft | 265 kts | 215° |
| 2026-05-07 16:25 | 32.05749 | -80.29449 | 28954 ft | 264 kts | 215° |
| 2026-05-07 16:25 | 32.04152 | -80.30525 | 28948 ft | 265 kts | 214° |
| 2026-05-07 16:25 | 32.02587 | -80.31610 | 28929 ft | 263 kts | 216° |
| 2026-05-07 16:26 | 32.00984 | -80.32720 | 28945 ft | 264 kts | 214° |
| 2026-05-07 16:26 | 31.99408 | -80.33777 | 28928 ft | 264 kts | 215° |
| 2026-05-07 16:26 | 31.97838 | -80.34892 | 28917 ft | 263 kts | 215° |
| 2026-05-07 16:26 | 31.96248 | -80.35959 | 28940 ft | 264 kts | 214° |
| 2026-05-07 16:27 | 31.94668 | -80.37063 | 28938 ft | 263 kts | 216° |
| 2026-05-07 16:27 | 31.93101 | -80.38136 | 28944 ft | 265 kts | 214° |
| 2026-05-07 16:27 | 31.91487 | -80.39220 | 28938 ft | 264 kts | 216° |
| 2026-05-07 16:27 | 31.89911 | -80.40336 | 28959 ft | 264 kts | 215° |
| 2026-05-07 16:28 | 31.88301 | -80.41411 | 28952 ft | 265 kts | 214° |
| 2026-05-07 16:28 | 31.86720 | -80.42515 | 28949 ft | 264 kts | 216° |
| 2026-05-07 16:28 | 31.85131 | -80.43601 | 28955 ft | 265 kts | 214° |
| 2026-05-07 16:28 | 31.83532 | -80.44672 | 28938 ft | 264 kts | 216° |
| 2026-05-07 16:29 | 31.81958 | -80.45786 | 28968 ft | 264 kts | 215° |
| 2026-05-07 16:29 | 31.80368 | -80.46847 | 28953 ft | 265 kts | 214° |
| 2026-05-07 16:29 | 31.78780 | -80.47948 | 28945 ft | 263 kts | 216° |
| 2026-05-07 16:29 | 31.77204 | -80.49030 | 28956 ft | 264 kts | 214° |
| 2026-05-07 16:30 | 31.75600 | -80.50096 | 28942 ft | 263 kts | 216° |
| 2026-05-07 16:30 | 31.74037 | -80.51203 | 28962 ft | 262 kts | 215° |
| 2026-05-07 16:30 | 31.72449 | -80.52266 | 28956 ft | 263 kts | 214° |
| 2026-05-07 16:30 | 31.70872 | -80.53347 | 28950 ft | 262 kts | 217° |
| 2026-05-07 16:31 | 31.69301 | -80.54437 | 28970 ft | 263 kts | 215° |
| 2026-05-07 16:31 | 31.67732 | -80.55474 | 28963 ft | 264 kts | 214° |
| 2026-05-07 16:31 | 31.66129 | -80.56594 | 28965 ft | 263 kts | 216° |
| 2026-05-07 16:31 | 31.64559 | -80.57658 | 28966 ft | 265 kts | 214° |
| 2026-05-07 16:32 | 31.62956 | -80.58726 | 28949 ft | 265 kts | 216° |
| 2026-05-07 16:32 | 31.61374 | -80.59838 | 28982 ft | 266 kts | 215° |
| 2026-05-07 16:32 | 31.59737 | -80.60921 | 28974 ft | 267 kts | 214° |
| 2026-05-07 16:32 | 31.58143 | -80.62029 | 28961 ft | 266 kts | 216° |
| 2026-05-07 16:33 | 31.56531 | -80.63117 | 28965 ft | 268 kts | 214° |
| 2026-05-07 16:33 | 31.54906 | -80.64209 | 28949 ft | 267 kts | 216° |
| 2026-05-07 16:33 | 31.53329 | -80.65307 | 28969 ft | 268 kts | 214° |
| 2026-05-07 16:33 | 31.51699 | -80.66380 | 28953 ft | 269 kts | 215° |
| 2026-05-07 16:34 | 31.50102 | -80.67501 | 28979 ft | 268 kts | 216° |
| 2026-05-07 16:34 | 31.48475 | -80.68582 | 28975 ft | 269 kts | 214° |
| 2026-05-07 16:34 | 31.46861 | -80.69685 | 28962 ft | 268 kts | 216° |
| 2026-05-07 16:34 | 31.45304 | -80.70751 | 28968 ft | 268 kts | 214° |
| 2026-05-07 16:35 | 31.43621 | -80.71864 | 28957 ft | 268 kts | 215° |
| 2026-05-07 16:35 | 31.42021 | -80.72985 | 28978 ft | 268 kts | 214° |
| 2026-05-07 16:35 | 31.40388 | -80.74060 | 28982 ft | 270 kts | 214° |
| 2026-05-07 16:35 | 31.38777 | -80.75172 | 28975 ft | 269 kts | 216° |
| 2026-05-07 16:36 | 31.37165 | -80.76263 | 28977 ft | 270 kts | 214° |
| 2026-05-07 16:36 | 31.35514 | -80.77352 | 28959 ft | 270 kts | 215° |
| 2026-05-07 16:36 | 31.33907 | -80.78477 | 28981 ft | 270 kts | 214° |
| 2026-05-07 16:36 | 31.32265 | -80.79557 | 28973 ft | 271 kts | 214° |
| 2026-05-07 16:37 | 31.30648 | -80.80670 | 28969 ft | 269 kts | 216° |
| 2026-05-07 16:37 | 31.29019 | -80.81767 | 28982 ft | 271 kts | 214° |
| 2026-05-07 16:37 | 31.27381 | -80.82855 | 28964 ft | 270 kts | 215° |
| 2026-05-07 16:37 | 31.25767 | -80.83974 | 28986 ft | 270 kts | 214° |
| 2026-05-07 16:38 | 31.24123 | -80.85049 | 28971 ft | 271 kts | 214° |
| 2026-05-07 16:38 | 31.22508 | -80.86173 | 28983 ft | 270 kts | 215° |
| 2026-05-07 16:38 | 31.20870 | -80.87258 | 28980 ft | 271 kts | 213° |
| 2026-05-07 16:38 | 31.19273 | -80.88333 | 28954 ft | 270 kts | 215° |
| 2026-05-07 16:39 | 31.17623 | -80.89460 | 28988 ft | 270 kts | 213° |
| 2026-05-07 16:39 | 31.15997 | -80.90525 | 28971 ft | 270 kts | 214° |
| 2026-05-07 16:39 | 31.14366 | -80.91660 | 28984 ft | 270 kts | 214° |
| 2026-05-07 16:39 | 31.12736 | -80.92727 | 28976 ft | 272 kts | 213° |
| 2026-05-07 16:40 | 31.11110 | -80.93840 | 28971 ft | 270 kts | 215° |
| 2026-05-07 16:40 | 31.09475 | -80.94935 | 28979 ft | 272 kts | 213° |
| 2026-05-07 16:40 | 31.07833 | -80.96023 | 28970 ft | 271 kts | 215° |
| 2026-05-07 16:40 | 31.06258 | -80.97111 | 28991 ft | 271 kts | 213° |
| 2026-05-07 16:41 | 31.04560 | -80.98215 | 28977 ft | 272 kts | 213° |
| 2026-05-07 16:41 | 31.02941 | -80.99336 | 28987 ft | 271 kts | 214° |
| 2026-05-07 16:41 | 31.01315 | -81.00408 | 28986 ft | 272 kts | 213° |
| 2026-05-07 16:41 | 30.99658 | -81.01521 | 28972 ft | 270 kts | 215° |
| 2026-05-07 16:42 | 30.98030 | -81.02625 | 28989 ft | 271 kts | 213° |
| 2026-05-07 16:42 | 30.96382 | -81.03698 | 28972 ft | 271 kts | 214° |
| 2026-05-07 16:42 | 30.94763 | -81.04817 | 28990 ft | 271 kts | 214° |
| 2026-05-07 16:42 | 30.93110 | -81.05899 | 28961 ft | 272 kts | 213° |
| 2026-05-07 16:43 | 30.91488 | -81.07013 | 28985 ft | 270 kts | 214° |
| 2026-05-07 16:43 | 30.89846 | -81.08095 | 28983 ft | 272 kts | 213° |
| 2026-05-07 16:43 | 30.88228 | -81.09172 | 28971 ft | 271 kts | 215° |
| 2026-05-07 16:43 | 30.86647 | -81.10248 | 28999 ft | 272 kts | 213° |
| 2026-05-07 16:44 | 30.84950 | -81.11350 | 28973 ft | 272 kts | 214° |
| 2026-05-07 16:44 | 30.83329 | -81.12470 | 28995 ft | 271 kts | 214° |
| 2026-05-07 16:44 | 30.81677 | -81.13541 | 28986 ft | 272 kts | 213° |
| 2026-05-07 16:44 | 30.80046 | -81.14653 | 28989 ft | 271 kts | 215° |
| 2026-05-07 16:45 | 30.78403 | -81.15744 | 28996 ft | 272 kts | 213° |
| 2026-05-07 16:45 | 30.76810 | -81.16791 | 28985 ft | 271 kts | 215° |
| 2026-05-07 16:45 | 30.75128 | -81.17939 | 29007 ft | 272 kts | 213° |
| 2026-05-07 16:45 | 30.73470 | -81.19010 | 28994 ft | 272 kts | 214° |
| 2026-05-07 16:46 | 30.71849 | -81.20127 | 29015 ft | 271 kts | 214° |
| 2026-05-07 16:46 | 30.70197 | -81.21201 | 29012 ft | 273 kts | 213° |
| 2026-05-07 16:46 | 30.68562 | -81.22302 | 29007 ft | 271 kts | 215° |
| 2026-05-07 16:46 | 30.66932 | -81.23390 | 29026 ft | 272 kts | 213° |
| 2026-05-07 16:47 | 30.65272 | -81.24465 | 28994 ft | 269 kts | 216° |
| 2026-05-07 16:47 | 30.63677 | -81.25554 | 29037 ft | 268 kts | 215° |
| 2026-05-07 16:47 | 30.61959 | -81.26474 | 29049 ft | 274 kts | 208° |
| 2026-05-07 16:47 | 30.60132 | -81.27149 | 29050 ft | 281 kts | 201° |
| 2026-05-07 16:48 | 30.58174 | -81.27567 | 29050 ft | 289 kts | 194° |
| 2026-05-07 16:48 | 30.56148 | -81.27690 | 29051 ft | 297 kts | 187° |
| 2026-05-07 16:48 | 30.54061 | -81.27569 | 29024 ft | 301 kts | 184° |
| 2026-05-07 16:48 | 30.52000 | -81.27417 | 29013 ft | 300 kts | 185° |
| 2026-05-07 16:49 | 30.49909 | -81.27340 | 29013 ft | 298 kts | 186° |
| 2026-05-07 16:49 | 30.47840 | -81.27231 | 29027 ft | 300 kts | 185° |
| 2026-05-07 16:49 | 30.45733 | -81.27100 | 29003 ft | 299 kts | 186° |
| 2026-05-07 16:49 | 30.43690 | -81.27029 | 29037 ft | 298 kts | 185° |
| 2026-05-07 16:50 | 30.41617 | -81.26895 | 29021 ft | 300 kts | 184° |
| 2026-05-07 16:50 | 30.39512 | -81.26803 | 29024 ft | 297 kts | 186° |
| 2026-05-07 16:50 | 30.37442 | -81.26699 | 29025 ft | 299 kts | 185° |
| 2026-05-07 16:50 | 30.35359 | -81.26570 | 29011 ft | 298 kts | 186° |
| 2026-05-07 16:51 | 30.33288 | -81.26497 | 29026 ft | 298 kts | 185° |
| 2026-05-07 16:51 | 30.31247 | -81.26364 | 29020 ft | 299 kts | 185° |
| 2026-05-07 16:51 | 30.29141 | -81.26274 | 29007 ft | 297 kts | 187° |
| 2026-05-07 16:51 | 30.27105 | -81.26172 | 29017 ft | 299 kts | 185° |
| 2026-05-07 16:52 | 30.24996 | -81.26015 | 29002 ft | 299 kts | 185° |
| 2026-05-07 16:52 | 30.22918 | -81.25919 | 28996 ft | 298 kts | 185° |
| 2026-05-07 16:52 | 30.20872 | -81.25776 | 29000 ft | 300 kts | 184° |
| 2026-05-07 16:52 | 30.18777 | -81.25643 | 28986 ft | 298 kts | 186° |
| 2026-05-07 16:53 | 30.16705 | -81.25535 | 29013 ft | 299 kts | 184° |
| 2026-05-07 16:53 | 30.14626 | -81.25375 | 28996 ft | 299 kts | 185° |
| 2026-05-07 16:53 | 30.12566 | -81.25282 | 29011 ft | 298 kts | 185° |
| 2026-05-07 16:53 | 30.10487 | -81.25138 | 28993 ft | 300 kts | 183° |
| 2026-05-07 16:54 | 30.08411 | -81.25003 | 28998 ft | 297 kts | 185° |
| 2026-05-07 16:54 | 30.06347 | -81.24902 | 29024 ft | 298 kts | 184° |
| 2026-05-07 16:54 | 30.04269 | -81.24741 | 29013 ft | 299 kts | 184° |
| 2026-05-07 16:54 | 30.02198 | -81.24643 | 29020 ft | 297 kts | 185° |
| 2026-05-07 16:55 | 30.00123 | -81.24503 | 28914 ft | 303 kts | 182° |
| 2026-05-07 16:55 | 29.97995 | -81.24346 | 28301 ft | 318 kts | 184° |
| 2026-05-07 16:55 | 29.95711 | -81.24216 | 27687 ft | 328 kts | 183° |
| 2026-05-07 16:55 | 29.93407 | -81.24058 | 27056 ft | 335 kts | 181° |
| 2026-05-07 16:56 | 29.91070 | -81.23874 | 26123 ft | 339 kts | 182° |
| 2026-05-07 16:56 | 29.88717 | -81.23725 | 25187 ft | 339 kts | 182° |
| 2026-05-07 16:56 | 29.83969 | -81.23485 | 23337 ft | 341 kts | 182° |
| 2026-05-07 16:57 | 29.81592 | -81.23363 | 22269 ft | 344 kts | 181° |
| 2026-05-07 16:57 | 29.79190 | -81.23220 | 21249 ft | 346 kts | 180° |
| 2026-05-07 16:57 | 29.76796 | -81.23054 | 20269 ft | 346 kts | 180° |
| 2026-05-07 16:57 | 29.74415 | -81.22908 | 19290 ft | 345 kts | 181° |
| 2026-05-07 16:58 | 29.71995 | -81.22819 | 18323 ft | 342 kts | 181° |
| 2026-05-07 16:58 | 29.69632 | -81.22758 | 17255 ft | 336 kts | 181° |
| 2026-05-07 16:58 | 29.67320 | -81.22704 | 16224 ft | 329 kts | 181° |
| 2026-05-07 16:58 | 29.65064 | -81.22644 | 15249 ft | 322 kts | 180° |
| 2026-05-07 16:59 | 29.62880 | -81.22547 | 14300 ft | 316 kts | 179° |
| 2026-05-07 16:59 | 29.60694 | -81.22433 | 13300 ft | 310 kts | 179° |
| 2026-05-07 16:59 | 29.58555 | -81.22317 | 12275 ft | 306 kts | 178° |
| 2026-05-07 16:59 | 29.56442 | -81.22205 | 11274 ft | 302 kts | 178° |
| 2026-05-07 17:00 | 29.54340 | -81.22093 | 10310 ft | 298 kts | 178° |
| 2026-05-07 17:00 | 29.52338 | -81.22031 | 9987 ft | 282 kts | 178° |
| 2026-05-07 17:00 | 29.50419 | -81.22004 | 9710 ft | 274 kts | 180° |
| 2026-05-07 17:00 | 29.48520 | -81.22014 | 9467 ft | 268 kts | 179° |
| 2026-05-07 17:01 | 29.46663 | -81.21969 | 9194 ft | 266 kts | 179° |
| 2026-05-07 17:01 | 29.44816 | -81.21862 | 8965 ft | 266 kts | 174° |
| 2026-05-07 17:01 | 29.42971 | -81.21702 | 8672 ft | 266 kts | 176° |
| 2026-05-07 17:01 | 29.41131 | -81.21610 | 8421 ft | 265 kts | 177° |
| 2026-05-07 17:02 | 29.39291 | -81.21563 | 8185 ft | 264 kts | 178° |
| 2026-05-07 17:02 | 29.37450 | -81.21426 | 7967 ft | 264 kts | 175° |
| 2026-05-07 17:02 | 29.35647 | -81.21321 | 7928 ft | 256 kts | 178° |
| 2026-05-07 17:02 | 29.33886 | -81.21303 | 7934 ft | 250 kts | 179° |
| 2026-05-07 17:03 | 29.32155 | -81.21247 | 7958 ft | 249 kts | 176° |
| 2026-05-07 17:03 | 29.30426 | -81.21132 | 7880 ft | 250 kts | 178° |
| 2026-05-07 17:03 | 29.28667 | -81.21071 | 7621 ft | 256 kts | 177° |
| 2026-05-07 17:03 | 29.26866 | -81.20977 | 7299 ft | 262 kts | 176° |
| 2026-05-07 17:04 | 29.25028 | -81.20841 | 6978 ft | 265 kts | 175° |
| 2026-05-07 17:04 | 29.23228 | -81.20666 | 6926 ft | 255 kts | 176° |
| 2026-05-07 17:04 | 29.21479 | -81.20652 | 6914 ft | 248 kts | 179° |
| 2026-05-07 17:04 | 29.19772 | -81.20637 | 6953 ft | 243 kts | 176° |
| 2026-05-07 17:05 | 29.18089 | -81.20470 | 6955 ft | 242 kts | 173° |
| 2026-05-07 17:05 | 29.16411 | -81.20349 | 6959 ft | 242 kts | 177° |
| 2026-05-07 17:05 | 29.14736 | -81.20262 | 6984 ft | 241 kts | 174° |
| 2026-05-07 17:05 | 29.13065 | -81.20102 | 6957 ft | 241 kts | 176° |
| 2026-05-07 17:06 | 29.11371 | -81.20031 | 6764 ft | 247 kts | 178° |
| 2026-05-07 17:06 | 29.09623 | -81.19988 | 6430 ft | 255 kts | 177° |
| 2026-05-07 17:06 | 29.07831 | -81.19915 | 6034 ft | 259 kts | 176° |
| 2026-05-07 17:06 | 29.06021 | -81.19857 | 5644 ft | 261 kts | 176° |
| 2026-05-07 17:07 | 29.04208 | -81.19781 | 5249 ft | 261 kts | 176° |
| 2026-05-07 17:07 | 29.03005 | -81.19772 | 4963 ft | 260 kts | 181° |
| 2026-05-07 17:07 | 29.01283 | -81.20146 | 4853 ft | 247 kts | 196° |
| 2026-05-07 17:07 | 28.99697 | -81.20813 | 4856 ft | 240 kts | 198° |
| 2026-05-07 17:08 | 28.97613 | -81.21535 | 4923 ft | 235 kts | 191° |
| 2026-05-07 17:08 | 28.96023 | -81.21928 | 4940 ft | 234 kts | 191° |
| 2026-05-07 17:08 | 28.94455 | -81.22425 | 4944 ft | 233 kts | 194° |
| 2026-05-07 17:08 | 28.92891 | -81.22910 | 4971 ft | 233 kts | 190° |
| 2026-05-07 17:09 | 28.91832 | -81.23245 | 4920 ft | 233 kts | 197° |
| 2026-05-07 17:09 | 28.90401 | -81.24100 | 4862 ft | 232 kts | 209° |
| 2026-05-07 17:09 | 28.89056 | -81.25117 | 4879 ft | 231 kts | 210° |
| 2026-05-07 17:09 | 28.87709 | -81.26098 | 4919 ft | 229 kts | 207° |
| 2026-05-07 17:10 | 28.86346 | -81.26995 | 4942 ft | 230 kts | 207° |
| 2026-05-07 17:10 | 28.84993 | -81.27955 | 4951 ft | 229 kts | 208° |
| 2026-05-07 17:10 | 28.83627 | -81.28887 | 4968 ft | 229 kts | 206° |
| 2026-05-07 17:10 | 28.82249 | -81.29822 | 4946 ft | 231 kts | 209° |
| 2026-05-07 17:11 | 28.80882 | -81.30804 | 4965 ft | 233 kts | 207° |
| 2026-05-07 17:11 | 28.79456 | -81.31703 | 4940 ft | 235 kts | 207° |
| 2026-05-07 17:11 | 28.78070 | -81.32677 | 4946 ft | 234 kts | 209° |
| 2026-05-07 17:11 | 28.76704 | -81.33675 | 4958 ft | 233 kts | 209° |
| 2026-05-07 17:12 | 28.75298 | -81.34578 | 4948 ft | 233 kts | 207° |
| 2026-05-07 17:12 | 28.73928 | -81.35556 | 4946 ft | 232 kts | 210° |
| 2026-05-07 17:12 | 28.72554 | -81.36522 | 4967 ft | 233 kts | 206° |
| 2026-05-07 17:12 | 28.71136 | -81.37425 | 4951 ft | 234 kts | 207° |
| 2026-05-07 17:13 | 28.69750 | -81.38395 | 4946 ft | 233 kts | 209° |
| 2026-05-07 17:13 | 28.68377 | -81.39381 | 4961 ft | 234 kts | 209° |
| 2026-05-07 17:13 | 28.66974 | -81.40304 | 4974 ft | 232 kts | 205° |
| 2026-05-07 17:13 | 28.65585 | -81.41256 | 4959 ft | 233 kts | 209° |
| 2026-05-07 17:14 | 28.64224 | -81.42253 | 4983 ft | 232 kts | 207° |
| 2026-05-07 17:14 | 28.62811 | -81.43154 | 4958 ft | 234 kts | 206° |
| 2026-05-07 17:14 | 28.61429 | -81.44108 | 4961 ft | 231 kts | 208° |
| 2026-05-07 17:14 | 28.60065 | -81.45078 | 4912 ft | 232 kts | 208° |
| 2026-05-07 17:15 | 28.58655 | -81.46039 | 4671 ft | 240 kts | 206° |
| 2026-05-07 17:15 | 28.57187 | -81.46990 | 4353 ft | 245 kts | 205° |
| 2026-05-07 17:15 | 28.55695 | -81.47934 | 4022 ft | 246 kts | 205° |
| 2026-05-07 17:15 | 28.54209 | -81.48915 | 3693 ft | 247 kts | 206° |
| 2026-05-07 17:16 | 28.52631 | -81.49533 | 3598 ft | 233 kts | 178° |
| 2026-05-07 17:16 | 28.51081 | -81.49043 | 3121 ft | 240 kts | 146° |
| 2026-05-07 17:16 | 28.50048 | -81.47545 | 2682 ft | 246 kts | 108° |
| 2026-05-07 17:16 | 28.49972 | -81.45650 | 2424 ft | 244 kts | 72° |
| 2026-05-07 17:17 | 28.50638 | -81.43859 | 2026 ft | 248 kts | 58° |
| 2026-05-07 17:17 | 28.51418 | -81.42157 | 1973 ft | 238 kts | 60° |
| 2026-05-07 17:17 | 28.52016 | -81.40464 | 1894 ft | 220 kts | 66° |
| 2026-05-07 17:17 | 28.52513 | -81.38934 | 1581 ft | 190 kts | 66° |
| 2026-05-07 17:18 | 28.52983 | -81.37594 | 1156 ft | 176 kts | 65° |
| 2026-05-07 17:18 | 28.53449 | -81.36354 | 716 ft | 167 kts | 63° |
| 2026-05-07 17:18 | 28.53880 | -81.35225 | 432 ft | 149 kts | 64° |
| 2026-05-07 17:18 | 28.54198 | -81.34349 | 232 ft | 98 kts | 72° |
| 2026-05-07 17:19 | 28.54416 | -81.33594 | 120 ft | 107 kts | 71° |
| 2026-05-07 17:19 | 28.54675 | -81.32911 | 114 ft | 77 kts | 81° |
| 2026-05-07 17:19 | 28.54784 | -81.32611 | 113 ft | 26 kts | 65° |
| 2026-05-07 17:19 | 28.54860 | -81.32420 | 118 ft | 18 kts | 61° |
| 2026-05-07 17:20 | 28.54906 | -81.32310 | 119 ft | 9 kts | 38° |
| 2026-05-07 17:20 | 28.54969 | -81.32318 | 119 ft | 9 kts | 337° |
| 2026-05-07 17:20 | 28.55019 | -81.32347 | 118 ft | 8 kts | 307° |
| 2026-05-07 17:20 | 28.55006 | -81.32415 | 116 ft | 10 kts | 245° |
| 2026-05-07 17:21 | 28.54977 | -81.32486 | 115 ft | 10 kts | 244° |
| 2026-05-07 17:21 | 28.54947 | -81.32563 | 114 ft | 11 kts | 249° |
| 2026-05-07 17:21 | 28.54915 | -81.32648 | 112 ft | 12 kts | 243° |
| 2026-05-07 17:21 | 28.54935 | -81.32709 | 112 ft | 10 kts | 326° |
| 2026-05-07 17:22 | 28.54986 | -81.32759 | 114 ft | 9 kts | 313° |
| 2026-05-07 17:22 | 28.55008 | -81.32807 | 114 ft | 0 kts | 250° |
| 2026-05-07 17:22 | 28.55003 | -81.32812 | 114 ft | 1 kts | 177° |
| 2026-05-07 17:22 | 28.54996 | -81.32810 | 114 ft | 0 kts | 163° |
| 2026-05-07 17:23 | 28.54995 | -81.32810 | 114 ft | 0 kts | 163° |
| 2026-05-07 17:23 | 28.54982 | -81.32804 | 114 ft | 1 kts | 165° |